<?xml version="1.0" encoding="UTF-8" standalone="no" ?>
<gpx xmlns="http://www.topografix.com/GPX/1/1" xmlns:xsi="http://www.w3.org/2001/XMLSchema-instance" xsi:schemaLocation="http://www.topografix.com/GPX/1/1 http://www.topografix.com/GPX/1/1/gpx.xsd" version="1.1" creator="VisuGPX - https://www.visugpx.com">
  <metadata>
    <name>Pégairolles de Buèges - mas Aubert</name>
    <desc><![CDATA[2017-05 - Pégairolles de Buèges - mas Neuf - menhir de Larret - mas Aubert

[b]album[/b] : [url]https://goo.gl/photos/uStHvvYsa6pSduux9[/url]
[img]https://1.bp.blogspot.com/-i7mMb_w5eoE/WSHAlbQnETI/AAAAAAAATfE/k42845AxiEYuJU-c9sydUrmeSridmoQ4QCLcB/s1600/2017-05_Pegairolles_menhir-Larret_mas-Aubert_i.JPG[/img]
[b]Idées de randonnées dans la même région[/b]
Parcours : [url]https://www.visugpx.com/membres/24856/causses/salagou/[/url]
Photos : [url]https://jcvertygo.blogspot.com/p/seranne.html[/url]]]></desc>
  </metadata>
  <trk>
    <name><![CDATA[Pégairolles de Buèges - mas Aubert_1]]></name>
    <trkseg>
      <trkpt lat="43.80409" lon="3.58232">
        <ele>252.1</ele>
        <time>2017-05-21T10:52:34Z</time>
      </trkpt>
      <trkpt lat="43.8041" lon="3.58223">
        <ele>252.1</ele>
        <time>2017-05-21T10:52:39Z</time>
      </trkpt>
      <trkpt lat="43.80408" lon="3.58216">
        <ele>251.96014679471</ele>
        <time>2017-05-21T10:52:44Z</time>
      </trkpt>
      <trkpt lat="43.80401" lon="3.58195">
        <ele>253.17125075384</ele>
        <time>2017-05-21T10:52:58Z</time>
      </trkpt>
      <trkpt lat="43.80401" lon="3.58194">
        <ele>253.17125075384</ele>
        <time>2017-05-21T10:52:59Z</time>
      </trkpt>
      <trkpt lat="43.80396" lon="3.58169">
        <ele>254.18961852242</ele>
        <time>2017-05-21T10:53:28Z</time>
      </trkpt>
      <trkpt lat="43.80396" lon="3.58168">
        <ele>254.18961852242</ele>
        <time>2017-05-21T10:53:28Z</time>
      </trkpt>
      <trkpt lat="43.80394" lon="3.58166">
        <ele>254.18961852242</ele>
        <time>2017-05-21T10:53:44Z</time>
      </trkpt>
      <trkpt lat="43.80394" lon="3.5816">
        <ele>254.18961852242</ele>
        <time>2017-05-21T10:53:44Z</time>
      </trkpt>
      <trkpt lat="43.80378" lon="3.58151">
        <ele>255.56360247106</ele>
        <time>2017-05-21T10:54:09Z</time>
      </trkpt>
      <trkpt lat="43.8034" lon="3.5814">
        <ele>257.0926721678</ele>
        <time>2017-05-21T10:54:34Z</time>
      </trkpt>
      <trkpt lat="43.80336" lon="3.58139">
        <ele>257.0926721678</ele>
        <time>2017-05-21T10:54:36Z</time>
      </trkpt>
      <trkpt lat="43.80329" lon="3.58134">
        <ele>258.52805118957</ele>
        <time>2017-05-21T10:54:52Z</time>
      </trkpt>
      <trkpt lat="43.80297" lon="3.58096">
        <ele>260.16876557018</ele>
        <time>2017-05-21T10:55:35Z</time>
      </trkpt>
      <trkpt lat="43.80292" lon="3.58085">
        <ele>261.65642591772</ele>
        <time>2017-05-21T10:55:44Z</time>
      </trkpt>
      <trkpt lat="43.80285" lon="3.5808">
        <ele>261.65642591772</ele>
        <time>2017-05-21T10:55:51Z</time>
      </trkpt>
      <trkpt lat="43.8027" lon="3.58062">
        <ele>263.02159807139</ele>
        <time>2017-05-21T10:56:17Z</time>
      </trkpt>
      <trkpt lat="43.80258" lon="3.58057">
        <ele>264.22823844606</ele>
        <time>2017-05-21T10:56:17Z</time>
      </trkpt>
      <trkpt lat="43.8025" lon="3.58049">
        <ele>265.28462623023</ele>
        <time>2017-05-21T10:56:26Z</time>
      </trkpt>
      <trkpt lat="43.80249" lon="3.58048">
        <ele>265.28462623023</ele>
        <time>2017-05-21T10:56:26Z</time>
      </trkpt>
      <trkpt lat="43.80193" lon="3.5796">
        <ele>267.33917824115</ele>
        <time>2017-05-21T10:57:45Z</time>
      </trkpt>
      <trkpt lat="43.80178" lon="3.57939">
        <ele>269.35984442772</ele>
        <time>2017-05-21T10:58:07Z</time>
      </trkpt>
      <trkpt lat="43.80166" lon="3.57899">
        <ele>271.56610954608</ele>
        <time>2017-05-21T10:58:49Z</time>
      </trkpt>
      <trkpt lat="43.8012" lon="3.57806">
        <ele>274.62059662784</ele>
        <time>2017-05-21T11:00:07Z</time>
      </trkpt>
      <trkpt lat="43.8012" lon="3.57799">
        <ele>274.62059662784</ele>
        <time>2017-05-21T11:00:07Z</time>
      </trkpt>
      <trkpt lat="43.80107" lon="3.57767">
        <ele>277.74009449779</ele>
        <time>2017-05-21T11:00:39Z</time>
      </trkpt>
      <trkpt lat="43.80106" lon="3.5776">
        <ele>277.74009449779</ele>
        <time>2017-05-21T11:00:44Z</time>
      </trkpt>
      <trkpt lat="43.80114" lon="3.57668">
        <ele>282.1337043919</ele>
        <time>2017-05-21T11:02:03Z</time>
      </trkpt>
      <trkpt lat="43.80117" lon="3.57628">
        <ele>287.29280007214</ele>
        <time>2017-05-21T11:03:07Z</time>
      </trkpt>
      <trkpt lat="43.80116" lon="3.57621">
        <ele>287.29280007214</ele>
        <time>2017-05-21T11:03:18Z</time>
      </trkpt>
      <trkpt lat="43.80116" lon="3.57609">
        <ele>292.30141242571</ele>
        <time>2017-05-21T11:03:23Z</time>
      </trkpt>
      <trkpt lat="43.80108" lon="3.57558">
        <ele>297.11549402746</ele>
        <time>2017-05-21T11:04:12Z</time>
      </trkpt>
      <trkpt lat="43.80106" lon="3.57547">
        <ele>297.11549402746</ele>
        <time>2017-05-21T11:04:12Z</time>
      </trkpt>
      <trkpt lat="43.80105" lon="3.57537">
        <ele>301.43863037622</ele>
        <time>2017-05-21T11:04:20Z</time>
      </trkpt>
      <trkpt lat="43.80102" lon="3.57528">
        <ele>301.43863037622</ele>
        <time>2017-05-21T11:04:43Z</time>
      </trkpt>
      <trkpt lat="43.80078" lon="3.57482">
        <ele>306.55394976795</ele>
        <time>2017-05-21T11:05:40Z</time>
      </trkpt>
      <trkpt lat="43.80076" lon="3.57471">
        <ele>306.55394976795</ele>
        <time>2017-05-21T11:05:40Z</time>
      </trkpt>
      <trkpt lat="43.80029" lon="3.57401">
        <ele>313.65383889777</ele>
        <time>2017-05-21T11:07:08Z</time>
      </trkpt>
      <trkpt lat="43.80025" lon="3.57398">
        <ele>313.65383889777</ele>
        <time>2017-05-21T11:07:08Z</time>
      </trkpt>
      <trkpt lat="43.80024" lon="3.57383">
        <ele>320.69142865576</ele>
        <time>2017-05-21T11:07:50Z</time>
      </trkpt>
      <trkpt lat="43.80032" lon="3.57384">
        <ele>320.69142865576</ele>
        <time>2017-05-21T11:08:07Z</time>
      </trkpt>
      <trkpt lat="43.80046" lon="3.57388">
        <ele>328.68737833538</ele>
        <time>2017-05-21T11:08:41Z</time>
      </trkpt>
      <trkpt lat="43.8007" lon="3.57407">
        <ele>336.25447850222</ele>
        <time>2017-05-21T11:08:41Z</time>
      </trkpt>
      <trkpt lat="43.80078" lon="3.5742">
        <ele>343.58940282436</ele>
        <time>2017-05-21T11:08:59Z</time>
      </trkpt>
      <trkpt lat="43.80077" lon="3.57414">
        <ele>343.58940282436</ele>
        <time>2017-05-21T11:09:32Z</time>
      </trkpt>
      <trkpt lat="43.80095" lon="3.57404">
        <ele>351.86952022519</ele>
        <time>2017-05-21T11:10:41Z</time>
      </trkpt>
      <trkpt lat="43.80099" lon="3.57414">
        <ele>351.86952022519</ele>
        <time>2017-05-21T11:10:41Z</time>
      </trkpt>
      <trkpt lat="43.801" lon="3.57416">
        <ele>359.75802971238</ele>
        <time>2017-05-21T11:10:58Z</time>
      </trkpt>
      <trkpt lat="43.80108" lon="3.57401">
        <ele>366.99346115147</ele>
        <time>2017-05-21T11:11:23Z</time>
      </trkpt>
      <trkpt lat="43.80107" lon="3.57392">
        <ele>366.99346115147</ele>
        <time>2017-05-21T11:11:23Z</time>
      </trkpt>
      <trkpt lat="43.80105" lon="3.57386">
        <ele>373.4591401511</ele>
        <time>2017-05-21T11:11:31Z</time>
      </trkpt>
      <trkpt lat="43.80108" lon="3.57386">
        <ele>373.4591401511</ele>
        <time>2017-05-21T11:12:00Z</time>
      </trkpt>
      <trkpt lat="43.80122" lon="3.57402">
        <ele>380.13992899403</ele>
        <time>2017-05-21T11:12:17Z</time>
      </trkpt>
      <trkpt lat="43.80128" lon="3.57403">
        <ele>380.13992899403</ele>
        <time>2017-05-21T11:12:17Z</time>
      </trkpt>
      <trkpt lat="43.80133" lon="3.5741">
        <ele>386.43200148311</ele>
        <time>2017-05-21T11:12:27Z</time>
      </trkpt>
      <trkpt lat="43.80133" lon="3.57411">
        <ele>386.43200148311</ele>
        <time>2017-05-21T11:12:27Z</time>
      </trkpt>
      <trkpt lat="43.80132" lon="3.57412">
        <ele>386.43200148311</ele>
        <time>2017-05-21T11:12:36Z</time>
      </trkpt>
      <trkpt lat="43.80133" lon="3.57407">
        <ele>386.43200148311</ele>
        <time>2017-05-21T11:12:44Z</time>
      </trkpt>
      <trkpt lat="43.80134" lon="3.57398">
        <ele>392.43988259017</ele>
        <time>2017-05-21T11:13:04Z</time>
      </trkpt>
      <trkpt lat="43.80116" lon="3.57358">
        <ele>398.30182174537</ele>
        <time>2017-05-21T11:14:00Z</time>
      </trkpt>
      <trkpt lat="43.80158" lon="3.5738">
        <ele>403.72675825665</ele>
        <time>2017-05-21T11:15:04Z</time>
      </trkpt>
      <trkpt lat="43.80181" lon="3.57389">
        <ele>409.58135117538</ele>
        <time>2017-05-21T11:15:45Z</time>
      </trkpt>
      <trkpt lat="43.80182" lon="3.57375">
        <ele>414.82846084251</ele>
        <time>2017-05-21T11:16:02Z</time>
      </trkpt>
      <trkpt lat="43.80182" lon="3.57372">
        <ele>414.82846084251</ele>
        <time>2017-05-21T11:16:03Z</time>
      </trkpt>
      <trkpt lat="43.80177" lon="3.57352">
        <ele>419.68452007425</ele>
        <time>2017-05-21T11:17:04Z</time>
      </trkpt>
      <trkpt lat="43.80229" lon="3.57389">
        <ele>426.68510718229</ele>
        <time>2017-05-21T11:18:29Z</time>
      </trkpt>
      <trkpt lat="43.80232" lon="3.57385">
        <ele>426.68510718229</ele>
        <time>2017-05-21T11:18:47Z</time>
      </trkpt>
      <trkpt lat="43.80214" lon="3.57347">
        <ele>433.63113851741</ele>
        <time>2017-05-21T11:19:37Z</time>
      </trkpt>
      <trkpt lat="43.80203" lon="3.57324">
        <ele>439.74483402863</ele>
        <time>2017-05-21T11:20:02Z</time>
      </trkpt>
      <trkpt lat="43.80192" lon="3.57307">
        <ele>445.06951661609</ele>
        <time>2017-05-21T11:20:23Z</time>
      </trkpt>
      <trkpt lat="43.80192" lon="3.573">
        <ele>445.06951661609</ele>
        <time>2017-05-21T11:20:26Z</time>
      </trkpt>
      <trkpt lat="43.80211" lon="3.57307">
        <ele>450.01984739749</ele>
        <time>2017-05-21T11:21:04Z</time>
      </trkpt>
      <trkpt lat="43.80218" lon="3.5731">
        <ele>450.01984739749</ele>
        <time>2017-05-21T11:21:12Z</time>
      </trkpt>
      <trkpt lat="43.80221" lon="3.57311">
        <ele>454.51612618734</ele>
        <time>2017-05-21T11:21:14Z</time>
      </trkpt>
      <trkpt lat="43.80227" lon="3.57319">
        <ele>454.51612618734</ele>
        <time>2017-05-21T11:21:19Z</time>
      </trkpt>
      <trkpt lat="43.8024" lon="3.5733">
        <ele>459.5143469019</ele>
        <time>2017-05-21T11:21:30Z</time>
      </trkpt>
      <trkpt lat="43.80241" lon="3.57332">
        <ele>459.5143469019</ele>
        <time>2017-05-21T11:21:30Z</time>
      </trkpt>
      <trkpt lat="43.80244" lon="3.5734">
        <ele>459.5143469019</ele>
        <time>2017-05-21T11:21:36Z</time>
      </trkpt>
      <trkpt lat="43.80247" lon="3.57342">
        <ele>464.63942251613</ele>
        <time>2017-05-21T11:21:59Z</time>
      </trkpt>
      <trkpt lat="43.80252" lon="3.57339">
        <ele>464.63942251613</ele>
        <time>2017-05-21T11:21:59Z</time>
      </trkpt>
      <trkpt lat="43.80255" lon="3.57346">
        <ele>469.37373138</ele>
        <time>2017-05-21T11:22:17Z</time>
      </trkpt>
      <trkpt lat="43.80345" lon="3.57371">
        <ele>474.37907220521</ele>
        <time>2017-05-21T11:23:34Z</time>
      </trkpt>
      <trkpt lat="43.80354" lon="3.57369">
        <ele>474.37907220521</ele>
        <time>2017-05-21T11:23:41Z</time>
      </trkpt>
      <trkpt lat="43.80358" lon="3.57369">
        <ele>479.0200126651</ele>
        <time>2017-05-21T11:23:49Z</time>
      </trkpt>
      <trkpt lat="43.80388" lon="3.5737">
        <ele>483.22077089183</ele>
        <time>2017-05-21T11:24:14Z</time>
      </trkpt>
      <trkpt lat="43.80388" lon="3.57371">
        <ele>483.22077089183</ele>
        <time>2017-05-21T11:24:15Z</time>
      </trkpt>
      <trkpt lat="43.80392" lon="3.57372">
        <ele>483.22077089183</ele>
        <time>2017-05-21T11:24:19Z</time>
      </trkpt>
      <trkpt lat="43.80414" lon="3.57387">
        <ele>487.18524941163</ele>
        <time>2017-05-21T11:24:57Z</time>
      </trkpt>
      <trkpt lat="43.80419" lon="3.57391">
        <ele>487.18524941163</ele>
        <time>2017-05-21T11:24:57Z</time>
      </trkpt>
      <trkpt lat="43.80434" lon="3.57389">
        <ele>491.29947579504</ele>
        <time>2017-05-21T11:25:16Z</time>
      </trkpt>
      <trkpt lat="43.80436" lon="3.5739">
        <ele>491.29947579504</ele>
        <time>2017-05-21T11:25:19Z</time>
      </trkpt>
      <trkpt lat="43.80454" lon="3.5739">
        <ele>495.36055328952</ele>
        <time>2017-05-21T11:25:41Z</time>
      </trkpt>
      <trkpt lat="43.80463" lon="3.57389">
        <ele>499.04579872753</ele>
        <time>2017-05-21T11:25:49Z</time>
      </trkpt>
      <trkpt lat="43.80486" lon="3.57392">
        <ele>502.93282725256</ele>
        <time>2017-05-21T11:26:21Z</time>
      </trkpt>
      <trkpt lat="43.80499" lon="3.57389">
        <ele>506.51434062758</ele>
        <time>2017-05-21T11:26:21Z</time>
      </trkpt>
      <trkpt lat="43.80559" lon="3.57409">
        <ele>511.83027090337</ele>
        <time>2017-05-21T11:27:46Z</time>
      </trkpt>
      <trkpt lat="43.80573" lon="3.57419">
        <ele>516.79371427706</ele>
        <time>2017-05-21T11:28:00Z</time>
      </trkpt>
      <trkpt lat="43.80644" lon="3.57432">
        <ele>523.4647458412</ele>
        <time>2017-05-21T11:29:19Z</time>
      </trkpt>
      <trkpt lat="43.80743" lon="3.57418">
        <ele>532.81630129714</ele>
        <time>2017-05-21T11:31:30Z</time>
      </trkpt>
      <trkpt lat="43.80747" lon="3.57417">
        <ele>532.81630129714</ele>
        <time>2017-05-21T11:31:30Z</time>
      </trkpt>
      <trkpt lat="43.80755" lon="3.57416">
        <ele>541.39309548755</ele>
        <time>2017-05-21T11:31:47Z</time>
      </trkpt>
      <trkpt lat="43.80761" lon="3.57416">
        <ele>541.39309548755</ele>
        <time>2017-05-21T11:31:47Z</time>
      </trkpt>
      <trkpt lat="43.80785" lon="3.57415">
        <ele>549.81241307551</ele>
        <time>2017-05-21T11:32:25Z</time>
      </trkpt>
      <trkpt lat="43.80822" lon="3.57401">
        <ele>558.35948076137</ele>
        <time>2017-05-21T11:33:02Z</time>
      </trkpt>
      <trkpt lat="43.80822" lon="3.57401">
        <ele>558.35948076137</ele>
        <time>2017-05-21T11:33:02Z</time>
      </trkpt>
      <trkpt lat="43.80828" lon="3.57397">
        <ele>558.35948076137</ele>
        <time>2017-05-21T11:33:14Z</time>
      </trkpt>
      <trkpt lat="43.80831" lon="3.57396">
        <ele>566.27799059215</ele>
        <time>2017-05-21T11:33:14Z</time>
      </trkpt>
      <trkpt lat="43.80836" lon="3.57393">
        <ele>566.27799059215</ele>
        <time>2017-05-21T11:33:19Z</time>
      </trkpt>
      <trkpt lat="43.80851" lon="3.57378">
        <ele>573.81815295606</ele>
        <time>2017-05-21T11:33:40Z</time>
      </trkpt>
      <trkpt lat="43.80856" lon="3.57373">
        <ele>573.81815295606</ele>
        <time>2017-05-21T11:33:47Z</time>
      </trkpt>
      <trkpt lat="43.80865" lon="3.57364">
        <ele>580.72603109242</ele>
        <time>2017-05-21T11:34:00Z</time>
      </trkpt>
      <trkpt lat="43.80874" lon="3.57355">
        <ele>587.10712526194</ele>
        <time>2017-05-21T11:34:18Z</time>
      </trkpt>
      <trkpt lat="43.80878" lon="3.57347">
        <ele>587.10712526194</ele>
        <time>2017-05-21T11:34:24Z</time>
      </trkpt>
      <trkpt lat="43.809" lon="3.57321">
        <ele>593.4980665857</ele>
        <time>2017-05-21T11:35:00Z</time>
      </trkpt>
      <trkpt lat="43.80926" lon="3.57282">
        <ele>599.0203195907</ele>
        <time>2017-05-21T11:35:37Z</time>
      </trkpt>
      <trkpt lat="43.80927" lon="3.57278">
        <ele>599.0203195907</ele>
        <time>2017-05-21T11:35:37Z</time>
      </trkpt>
      <trkpt lat="43.80928" lon="3.57271">
        <ele>599.0203195907</ele>
        <time>2017-05-21T11:35:54Z</time>
      </trkpt>
      <trkpt lat="43.8094" lon="3.57255">
        <ele>604.39771764767</ele>
        <time>2017-05-21T11:36:09Z</time>
      </trkpt>
      <trkpt lat="43.8094" lon="3.57251">
        <ele>604.39771764767</ele>
        <time>2017-05-21T11:36:11Z</time>
      </trkpt>
      <trkpt lat="43.80945" lon="3.57242">
        <ele>609.23478885219</ele>
        <time>2017-05-21T11:36:25Z</time>
      </trkpt>
      <trkpt lat="43.80962" lon="3.57223">
        <ele>613.93845169725</ele>
        <time>2017-05-21T11:36:56Z</time>
      </trkpt>
      <trkpt lat="43.80967" lon="3.57216">
        <ele>613.93845169725</ele>
        <time>2017-05-21T11:36:56Z</time>
      </trkpt>
      <trkpt lat="43.80976" lon="3.5721">
        <ele>618.34722668461</ele>
        <time>2017-05-21T11:37:14Z</time>
      </trkpt>
      <trkpt lat="43.80978" lon="3.57212">
        <ele>618.34722668461</ele>
        <time>2017-05-21T11:37:21Z</time>
      </trkpt>
      <trkpt lat="43.80987" lon="3.57211">
        <ele>622.31302472299</ele>
        <time>2017-05-21T11:37:30Z</time>
      </trkpt>
      <trkpt lat="43.80993" lon="3.57213">
        <ele>622.31302472299</ele>
        <time>2017-05-21T11:37:38Z</time>
      </trkpt>
      <trkpt lat="43.80999" lon="3.57139">
        <ele>626.0476969437</ele>
        <time>2017-05-21T11:39:13Z</time>
      </trkpt>
      <trkpt lat="43.81002" lon="3.57117">
        <ele>629.12549892151</ele>
        <time>2017-05-21T11:39:30Z</time>
      </trkpt>
      <trkpt lat="43.81002" lon="3.57087">
        <ele>631.55952993123</ele>
        <time>2017-05-21T11:40:06Z</time>
      </trkpt>
      <trkpt lat="43.80999" lon="3.57082">
        <ele>631.55952993123</ele>
        <time>2017-05-21T11:40:07Z</time>
      </trkpt>
      <trkpt lat="43.80995" lon="3.57056">
        <ele>633.37788327165</ele>
        <time>2017-05-21T11:40:38Z</time>
      </trkpt>
      <trkpt lat="43.80993" lon="3.57043">
        <ele>634.70908137742</ele>
        <time>2017-05-21T11:40:38Z</time>
      </trkpt>
      <trkpt lat="43.80985" lon="3.57009">
        <ele>635.81748314938</ele>
        <time>2017-05-21T11:41:13Z</time>
      </trkpt>
      <trkpt lat="43.80984" lon="3.57008">
        <ele>635.81748314938</ele>
        <time>2017-05-21T11:41:14Z</time>
      </trkpt>
      <trkpt lat="43.80981" lon="3.57">
        <ele>635.81748314938</ele>
        <time>2017-05-21T11:41:27Z</time>
      </trkpt>
      <trkpt lat="43.8098" lon="3.56993">
        <ele>636.54428373786</ele>
        <time>2017-05-21T11:41:27Z</time>
      </trkpt>
      <trkpt lat="43.80967" lon="3.56936">
        <ele>636.81558917311</ele>
        <time>2017-05-21T11:42:22Z</time>
      </trkpt>
      <trkpt lat="43.80959" lon="3.56916">
        <ele>636.82367487081</ele>
        <time>2017-05-21T11:42:44Z</time>
      </trkpt>
      <trkpt lat="43.80962" lon="3.56904">
        <ele>636.68949122291</ele>
        <time>2017-05-21T11:42:59Z</time>
      </trkpt>
      <trkpt lat="43.80964" lon="3.56895">
        <ele>636.68949122291</ele>
        <time>2017-05-21T11:43:00Z</time>
      </trkpt>
      <trkpt lat="43.80963" lon="3.56877">
        <ele>636.49646807423</ele>
        <time>2017-05-21T11:43:26Z</time>
      </trkpt>
      <trkpt lat="43.80958" lon="3.56863">
        <ele>636.22095500633</ele>
        <time>2017-05-21T11:43:43Z</time>
      </trkpt>
      <trkpt lat="43.80955" lon="3.56827">
        <ele>636.07174104529</ele>
        <time>2017-05-21T11:44:00Z</time>
      </trkpt>
      <trkpt lat="43.80954" lon="3.56818">
        <ele>636.07174104529</ele>
        <time>2017-05-21T11:44:25Z</time>
      </trkpt>
      <trkpt lat="43.80956" lon="3.56813">
        <ele>635.98215688315</ele>
        <time>2017-05-21T11:44:25Z</time>
      </trkpt>
      <trkpt lat="43.80955" lon="3.56804">
        <ele>635.98215688315</ele>
        <time>2017-05-21T11:44:41Z</time>
      </trkpt>
      <trkpt lat="43.80952" lon="3.56797">
        <ele>635.78905133817</ele>
        <time>2017-05-21T11:44:41Z</time>
      </trkpt>
      <trkpt lat="43.80949" lon="3.56778">
        <ele>635.61518343648</ele>
        <time>2017-05-21T11:45:00Z</time>
      </trkpt>
      <trkpt lat="43.80957" lon="3.56766">
        <ele>635.63159644226</ele>
        <time>2017-05-21T11:45:21Z</time>
      </trkpt>
      <trkpt lat="43.80966" lon="3.56757">
        <ele>636.65926743264</ele>
        <time>2017-05-21T11:48:43Z</time>
      </trkpt>
      <trkpt lat="43.80966" lon="3.56756">
        <ele>636.65926743264</ele>
        <time>2017-05-21T11:48:46Z</time>
      </trkpt>
      <trkpt lat="43.80968" lon="3.56741">
        <ele>637.50880032875</ele>
        <time>2017-05-21T11:49:00Z</time>
      </trkpt>
      <trkpt lat="43.8097" lon="3.5672">
        <ele>638.17424295813</ele>
        <time>2017-05-21T11:49:25Z</time>
      </trkpt>
      <trkpt lat="43.80972" lon="3.56706">
        <ele>638.67905700426</ele>
        <time>2017-05-21T11:49:26Z</time>
      </trkpt>
      <trkpt lat="43.80967" lon="3.5669">
        <ele>639.07389423768</ele>
        <time>2017-05-21T11:49:37Z</time>
      </trkpt>
      <trkpt lat="43.80934" lon="3.56643">
        <ele>639.65081775586</ele>
        <time>2017-05-21T11:50:19Z</time>
      </trkpt>
      <trkpt lat="43.8093" lon="3.56608">
        <ele>640.07370964596</ele>
        <time>2017-05-21T11:51:08Z</time>
      </trkpt>
      <trkpt lat="43.8093" lon="3.56598">
        <ele>640.07370964596</ele>
        <time>2017-05-21T11:51:08Z</time>
      </trkpt>
      <trkpt lat="43.80931" lon="3.56582">
        <ele>640.52162198216</ele>
        <time>2017-05-21T11:51:26Z</time>
      </trkpt>
      <trkpt lat="43.80933" lon="3.56557">
        <ele>640.84265064126</ele>
        <time>2017-05-21T11:51:41Z</time>
      </trkpt>
      <trkpt lat="43.80932" lon="3.56555">
        <ele>640.84265064126</ele>
        <time>2017-05-21T11:51:41Z</time>
      </trkpt>
      <trkpt lat="43.80933" lon="3.56552">
        <ele>640.84265064126</ele>
        <time>2017-05-21T11:51:53Z</time>
      </trkpt>
      <trkpt lat="43.80933" lon="3.56549">
        <ele>640.84265064126</ele>
        <time>2017-05-21T11:51:57Z</time>
      </trkpt>
      <trkpt lat="43.80934" lon="3.56543">
        <ele>641.40088307272</ele>
        <time>2017-05-21T11:51:58Z</time>
      </trkpt>
      <trkpt lat="43.80934" lon="3.56542">
        <ele>641.40088307272</ele>
        <time>2017-05-21T11:51:59Z</time>
      </trkpt>
      <trkpt lat="43.80932" lon="3.56536">
        <ele>641.40088307272</ele>
        <time>2017-05-21T11:52:10Z</time>
      </trkpt>
      <trkpt lat="43.80925" lon="3.5649">
        <ele>642.09985340173</ele>
        <time>2017-05-21T11:52:48Z</time>
      </trkpt>
      <trkpt lat="43.80916" lon="3.56477">
        <ele>642.7196111791</ele>
        <time>2017-05-21T11:52:48Z</time>
      </trkpt>
      <trkpt lat="43.80907" lon="3.56452">
        <ele>643.28702430031</ele>
        <time>2017-05-21T11:53:08Z</time>
      </trkpt>
      <trkpt lat="43.80906" lon="3.56448">
        <ele>643.28702430031</ele>
        <time>2017-05-21T11:53:08Z</time>
      </trkpt>
      <trkpt lat="43.80904" lon="3.56436">
        <ele>643.71139514655</ele>
        <time>2017-05-21T11:53:29Z</time>
      </trkpt>
      <trkpt lat="43.80893" lon="3.56412">
        <ele>644.29814816319</ele>
        <time>2017-05-21T11:54:00Z</time>
      </trkpt>
      <trkpt lat="43.80891" lon="3.56402">
        <ele>644.29814816319</ele>
        <time>2017-05-21T11:54:09Z</time>
      </trkpt>
      <trkpt lat="43.80891" lon="3.56399">
        <ele>644.79583380354</ele>
        <time>2017-05-21T11:54:10Z</time>
      </trkpt>
      <trkpt lat="43.80885" lon="3.56381">
        <ele>645.20217150385</ele>
        <time>2017-05-21T11:54:24Z</time>
      </trkpt>
      <trkpt lat="43.8087" lon="3.56358">
        <ele>645.4428848244</ele>
        <time>2017-05-21T11:54:49Z</time>
      </trkpt>
      <trkpt lat="43.8083" lon="3.56295">
        <ele>644.78605311223</ele>
        <time>2017-05-21T11:55:39Z</time>
      </trkpt>
      <trkpt lat="43.808" lon="3.56285">
        <ele>643.72374795987</ele>
        <time>2017-05-21T11:56:08Z</time>
      </trkpt>
      <trkpt lat="43.80796" lon="3.56281">
        <ele>643.72374795987</ele>
        <time>2017-05-21T11:56:08Z</time>
      </trkpt>
      <trkpt lat="43.80782" lon="3.56283">
        <ele>642.49635317929</ele>
        <time>2017-05-21T11:56:20Z</time>
      </trkpt>
      <trkpt lat="43.8077" lon="3.56275">
        <ele>641.44202820744</ele>
        <time>2017-05-21T11:56:46Z</time>
      </trkpt>
      <trkpt lat="43.80761" lon="3.56265">
        <ele>640.46958138814</ele>
        <time>2017-05-21T11:56:46Z</time>
      </trkpt>
      <trkpt lat="43.80754" lon="3.56261">
        <ele>640.46958138814</ele>
        <time>2017-05-21T11:57:00Z</time>
      </trkpt>
      <trkpt lat="43.8075" lon="3.56259">
        <ele>639.71022625027</ele>
        <time>2017-05-21T11:57:00Z</time>
      </trkpt>
      <trkpt lat="43.80706" lon="3.56269">
        <ele>638.99631360677</ele>
        <time>2017-05-21T11:57:36Z</time>
      </trkpt>
      <trkpt lat="43.80682" lon="3.56301">
        <ele>638.80633002022</ele>
        <time>2017-05-21T11:58:05Z</time>
      </trkpt>
      <trkpt lat="43.80681" lon="3.56302">
        <ele>638.80633002022</ele>
        <time>2017-05-21T11:58:11Z</time>
      </trkpt>
      <trkpt lat="43.8068" lon="3.56308">
        <ele>638.80633002022</ele>
        <time>2017-05-21T11:58:21Z</time>
      </trkpt>
      <trkpt lat="43.80679" lon="3.56303">
        <ele>638.54398948771</ele>
        <time>2017-05-21T11:58:47Z</time>
      </trkpt>
      <trkpt lat="43.80673" lon="3.56287">
        <ele>638.30539596314</ele>
        <time>2017-05-21T11:59:10Z</time>
      </trkpt>
      <trkpt lat="43.80665" lon="3.56287">
        <ele>638.30539596314</ele>
        <time>2017-05-21T11:59:10Z</time>
      </trkpt>
      <trkpt lat="43.80657" lon="3.56285">
        <ele>638.04951508924</ele>
        <time>2017-05-21T11:59:21Z</time>
      </trkpt>
      <trkpt lat="43.80656" lon="3.56285">
        <ele>638.04951508924</ele>
        <time>2017-05-21T11:59:21Z</time>
      </trkpt>
      <trkpt lat="43.80616" lon="3.56258">
        <ele>637.96870631155</ele>
        <time>2017-05-21T12:00:12Z</time>
      </trkpt>
      <trkpt lat="43.80608" lon="3.56252">
        <ele>637.96659411128</ele>
        <time>2017-05-21T12:00:12Z</time>
      </trkpt>
      <trkpt lat="43.806" lon="3.56246">
        <ele>637.96659411128</ele>
        <time>2017-05-21T12:00:29Z</time>
      </trkpt>
      <trkpt lat="43.80541" lon="3.56238">
        <ele>638.83255361917</ele>
        <time>2017-05-21T12:01:58Z</time>
      </trkpt>
      <trkpt lat="43.80559" lon="3.56245">
        <ele>640.17113424205</ele>
        <time>2017-05-21T12:03:26Z</time>
      </trkpt>
      <trkpt lat="43.80582" lon="3.5625">
        <ele>641.54235711491</ele>
        <time>2017-05-21T12:03:58Z</time>
      </trkpt>
      <trkpt lat="43.80592" lon="3.5624">
        <ele>642.78328632235</ele>
        <time>2017-05-21T12:04:12Z</time>
      </trkpt>
      <trkpt lat="43.80592" lon="3.56237">
        <ele>642.78328632235</ele>
        <time>2017-05-21T12:04:14Z</time>
      </trkpt>
      <trkpt lat="43.8061" lon="3.56184">
        <ele>643.85843398006</ele>
        <time>2017-05-21T12:04:56Z</time>
      </trkpt>
      <trkpt lat="43.80616" lon="3.56152">
        <ele>644.89374518949</ele>
        <time>2017-05-21T12:05:29Z</time>
      </trkpt>
      <trkpt lat="43.80608" lon="3.56149">
        <ele>644.89374518949</ele>
        <time>2017-05-21T12:05:39Z</time>
      </trkpt>
      <trkpt lat="43.80602" lon="3.56155">
        <ele>645.83294038716</ele>
        <time>2017-05-21T12:05:44Z</time>
      </trkpt>
      <trkpt lat="43.80598" lon="3.56167">
        <ele>645.83294038716</ele>
        <time>2017-05-21T12:05:54Z</time>
      </trkpt>
      <trkpt lat="43.80595" lon="3.5617">
        <ele>646.72489304713</ele>
        <time>2017-05-21T12:05:59Z</time>
      </trkpt>
      <trkpt lat="43.80587" lon="3.56171">
        <ele>646.72489304713</ele>
        <time>2017-05-21T12:06:09Z</time>
      </trkpt>
      <trkpt lat="43.80581" lon="3.56171">
        <ele>647.60049143726</ele>
        <time>2017-05-21T12:06:14Z</time>
      </trkpt>
      <trkpt lat="43.80573" lon="3.56168">
        <ele>647.60049143726</ele>
        <time>2017-05-21T12:06:24Z</time>
      </trkpt>
      <trkpt lat="43.80558" lon="3.56167">
        <ele>647.96949233876</ele>
        <time>2017-05-21T12:06:41Z</time>
      </trkpt>
      <trkpt lat="43.80536" lon="3.56155">
        <ele>648.22925814814</ele>
        <time>2017-05-21T12:06:59Z</time>
      </trkpt>
      <trkpt lat="43.80491" lon="3.56143">
        <ele>648.40231354204</ele>
        <time>2017-05-21T12:07:41Z</time>
      </trkpt>
      <trkpt lat="43.80473" lon="3.56142">
        <ele>648.55292908974</ele>
        <time>2017-05-21T12:07:49Z</time>
      </trkpt>
      <trkpt lat="43.80453" lon="3.56131">
        <ele>648.89917107385</ele>
        <time>2017-05-21T12:08:09Z</time>
      </trkpt>
      <trkpt lat="43.80453" lon="3.5613">
        <ele>648.89917107385</ele>
        <time>2017-05-21T12:08:14Z</time>
      </trkpt>
      <trkpt lat="43.80442" lon="3.56129">
        <ele>649.64247447542</ele>
        <time>2017-05-21T12:08:43Z</time>
      </trkpt>
      <trkpt lat="43.80436" lon="3.56129">
        <ele>649.64247447542</ele>
        <time>2017-05-21T12:09:00Z</time>
      </trkpt>
      <trkpt lat="43.8043" lon="3.56126">
        <ele>650.39185121757</ele>
        <time>2017-05-21T12:09:09Z</time>
      </trkpt>
      <trkpt lat="43.80428" lon="3.56123">
        <ele>650.39185121757</ele>
        <time>2017-05-21T12:09:17Z</time>
      </trkpt>
      <trkpt lat="43.80426" lon="3.56124">
        <ele>650.39185121757</ele>
        <time>2017-05-21T12:09:29Z</time>
      </trkpt>
      <trkpt lat="43.8042" lon="3.56123">
        <ele>651.28936472934</ele>
        <time>2017-05-21T12:09:44Z</time>
      </trkpt>
      <trkpt lat="43.80415" lon="3.56121">
        <ele>651.28936472934</ele>
        <time>2017-05-21T12:09:57Z</time>
      </trkpt>
      <trkpt lat="43.80412" lon="3.56118">
        <ele>652.22119182239</ele>
        <time>2017-05-21T12:10:00Z</time>
      </trkpt>
      <trkpt lat="43.80413" lon="3.56119">
        <ele>652.22119182239</ele>
        <time>2017-05-21T12:10:47Z</time>
      </trkpt>
      <trkpt lat="43.8041" lon="3.56119">
        <ele>652.22119182239</ele>
        <time>2017-05-21T12:10:49Z</time>
      </trkpt>
      <trkpt lat="43.80407" lon="3.56119">
        <ele>652.22119182239</ele>
        <time>2017-05-21T12:10:54Z</time>
      </trkpt>
      <trkpt lat="43.80402" lon="3.56118">
        <ele>653.45643942784</ele>
        <time>2017-05-21T12:10:59Z</time>
      </trkpt>
      <trkpt lat="43.80391" lon="3.56114">
        <ele>654.62388032963</ele>
        <time>2017-05-21T12:11:09Z</time>
      </trkpt>
      <trkpt lat="43.80387" lon="3.56113">
        <ele>654.62388032963</ele>
        <time>2017-05-21T12:11:14Z</time>
      </trkpt>
      <trkpt lat="43.80376" lon="3.56102">
        <ele>655.7400208932</ele>
        <time>2017-05-21T12:11:29Z</time>
      </trkpt>
      <trkpt lat="43.80371" lon="3.561">
        <ele>655.7400208932</ele>
        <time>2017-05-21T12:11:34Z</time>
      </trkpt>
      <trkpt lat="43.80364" lon="3.56096">
        <ele>656.86353006595</ele>
        <time>2017-05-21T12:11:44Z</time>
      </trkpt>
      <trkpt lat="43.80361" lon="3.56089">
        <ele>656.86353006595</ele>
        <time>2017-05-21T12:11:49Z</time>
      </trkpt>
      <trkpt lat="43.80355" lon="3.5608">
        <ele>658.09198653933</ele>
        <time>2017-05-21T12:11:56Z</time>
      </trkpt>
      <trkpt lat="43.80339" lon="3.56068">
        <ele>659.71728182884</ele>
        <time>2017-05-21T12:12:14Z</time>
      </trkpt>
      <trkpt lat="43.80315" lon="3.56069">
        <ele>661.80701483881</ele>
        <time>2017-05-21T12:12:37Z</time>
      </trkpt>
      <trkpt lat="43.80304" lon="3.56064">
        <ele>664.14873265228</ele>
        <time>2017-05-21T12:12:57Z</time>
      </trkpt>
      <trkpt lat="43.80287" lon="3.56045">
        <ele>666.93404074782</ele>
        <time>2017-05-21T12:13:06Z</time>
      </trkpt>
      <trkpt lat="43.80286" lon="3.56044">
        <ele>666.93404074782</ele>
        <time>2017-05-21T12:13:06Z</time>
      </trkpt>
      <trkpt lat="43.80246" lon="3.56009">
        <ele>670.97339306908</ele>
        <time>2017-05-21T12:13:51Z</time>
      </trkpt>
      <trkpt lat="43.80207" lon="3.55933">
        <ele>675.42901251964</ele>
        <time>2017-05-21T12:14:55Z</time>
      </trkpt>
      <trkpt lat="43.802" lon="3.55921">
        <ele>679.55243054114</ele>
        <time>2017-05-21T12:14:55Z</time>
      </trkpt>
      <trkpt lat="43.80195" lon="3.55889">
        <ele>682.46387660198</ele>
        <time>2017-05-21T12:15:21Z</time>
      </trkpt>
      <trkpt lat="43.802" lon="3.55886">
        <ele>682.46387660198</ele>
        <time>2017-05-21T12:16:08Z</time>
      </trkpt>
      <trkpt lat="43.80193" lon="3.55899">
        <ele>683.40940244154</ele>
        <time>2017-05-21T12:17:22Z</time>
      </trkpt>
      <trkpt lat="43.80199" lon="3.55894">
        <ele>683.40940244154</ele>
        <time>2017-05-21T12:20:49Z</time>
      </trkpt>
      <trkpt lat="43.80199" lon="3.55893">
        <ele>683.40940244154</ele>
        <time>2017-05-21T12:20:56Z</time>
      </trkpt>
      <trkpt lat="43.80191" lon="3.55899">
        <ele>683.43989029156</ele>
        <time>2017-05-21T12:21:46Z</time>
      </trkpt>
      <trkpt lat="43.80198" lon="3.55906">
        <ele>683.43989029156</ele>
        <time>2017-05-21T12:22:39Z</time>
      </trkpt>
      <trkpt lat="43.8021" lon="3.559">
        <ele>683.14262854322</ele>
        <time>2017-05-21T12:22:49Z</time>
      </trkpt>
      <trkpt lat="43.80207" lon="3.55916">
        <ele>682.74576875073</ele>
        <time>2017-05-21T12:23:29Z</time>
      </trkpt>
      <trkpt lat="43.80207" lon="3.55916">
        <ele>682.74576875073</ele>
        <time>2017-05-21T12:23:32Z</time>
      </trkpt>
      <trkpt lat="43.80218" lon="3.55888">
        <ele>682.38904685194</ele>
        <time>2017-05-21T12:24:19Z</time>
      </trkpt>
      <trkpt lat="43.802" lon="3.55874">
        <ele>681.89928939415</ele>
        <time>2017-05-21T12:24:59Z</time>
      </trkpt>
      <trkpt lat="43.80193" lon="3.55879">
        <ele>681.89928939415</ele>
        <time>2017-05-21T12:36:29Z</time>
      </trkpt>
      <trkpt lat="43.80195" lon="3.55875">
        <ele>681.07327305926</ele>
        <time>2017-05-21T12:36:34Z</time>
      </trkpt>
      <trkpt lat="43.8019" lon="3.55878">
        <ele>681.07327305926</ele>
        <time>2017-05-21T12:44:00Z</time>
      </trkpt>
      <trkpt lat="43.80179" lon="3.55878">
        <ele>681.03514363442</ele>
        <time>2017-05-21T12:44:48Z</time>
      </trkpt>
      <trkpt lat="43.80166" lon="3.55865">
        <ele>681.02290734526</ele>
        <time>2017-05-21T12:45:10Z</time>
      </trkpt>
      <trkpt lat="43.80145" lon="3.55828">
        <ele>681.23842946166</ele>
        <time>2017-05-21T12:45:39Z</time>
      </trkpt>
      <trkpt lat="43.80103" lon="3.55813">
        <ele>681.86814350789</ele>
        <time>2017-05-21T12:46:19Z</time>
      </trkpt>
      <trkpt lat="43.80097" lon="3.5581">
        <ele>681.86814350789</ele>
        <time>2017-05-21T12:46:24Z</time>
      </trkpt>
      <trkpt lat="43.80078" lon="3.55771">
        <ele>682.93954441452</ele>
        <time>2017-05-21T12:47:00Z</time>
      </trkpt>
      <trkpt lat="43.80105" lon="3.55717">
        <ele>684.21749510322</ele>
        <time>2017-05-21T12:47:51Z</time>
      </trkpt>
      <trkpt lat="43.80103" lon="3.55706">
        <ele>684.21749510322</ele>
        <time>2017-05-21T12:47:59Z</time>
      </trkpt>
      <trkpt lat="43.80099" lon="3.55696">
        <ele>685.584458345</ele>
        <time>2017-05-21T12:48:00Z</time>
      </trkpt>
      <trkpt lat="43.8011" lon="3.55662">
        <ele>686.78719862763</ele>
        <time>2017-05-21T12:48:27Z</time>
      </trkpt>
      <trkpt lat="43.80106" lon="3.55635">
        <ele>688.05273132212</ele>
        <time>2017-05-21T12:48:50Z</time>
      </trkpt>
      <trkpt lat="43.80104" lon="3.55633">
        <ele>688.05273132212</ele>
        <time>2017-05-21T12:48:50Z</time>
      </trkpt>
      <trkpt lat="43.80051" lon="3.55549">
        <ele>690.23975411914</ele>
        <time>2017-05-21T12:50:02Z</time>
      </trkpt>
      <trkpt lat="43.8005" lon="3.55548">
        <ele>690.23975411914</ele>
        <time>2017-05-21T12:50:02Z</time>
      </trkpt>
      <trkpt lat="43.80036" lon="3.55527">
        <ele>692.51287930497</ele>
        <time>2017-05-21T12:50:21Z</time>
      </trkpt>
      <trkpt lat="43.80033" lon="3.55524">
        <ele>692.51287930497</ele>
        <time>2017-05-21T12:50:24Z</time>
      </trkpt>
      <trkpt lat="43.80026" lon="3.55507">
        <ele>694.70315776643</ele>
        <time>2017-05-21T12:50:36Z</time>
      </trkpt>
      <trkpt lat="43.80025" lon="3.55504">
        <ele>694.70315776643</ele>
        <time>2017-05-21T12:50:36Z</time>
      </trkpt>
      <trkpt lat="43.80013" lon="3.55482">
        <ele>696.87050230832</ele>
        <time>2017-05-21T12:50:57Z</time>
      </trkpt>
      <trkpt lat="43.80005" lon="3.5547">
        <ele>698.81114744592</ele>
        <time>2017-05-21T12:50:58Z</time>
      </trkpt>
      <trkpt lat="43.79998" lon="3.55459">
        <ele>700.52434147352</ele>
        <time>2017-05-21T12:51:15Z</time>
      </trkpt>
      <trkpt lat="43.79994" lon="3.55444">
        <ele>702.05332783468</ele>
        <time>2017-05-21T12:51:15Z</time>
      </trkpt>
      <trkpt lat="43.79971" lon="3.55385">
        <ele>703.87109491659</ele>
        <time>2017-05-21T12:51:59Z</time>
      </trkpt>
      <trkpt lat="43.79934" lon="3.55308">
        <ele>706.11251544671</ele>
        <time>2017-05-21T12:53:00Z</time>
      </trkpt>
      <trkpt lat="43.7993" lon="3.55302">
        <ele>706.11251544671</ele>
        <time>2017-05-21T12:53:00Z</time>
      </trkpt>
      <trkpt lat="43.7989" lon="3.55259">
        <ele>708.55557535691</ele>
        <time>2017-05-21T12:53:53Z</time>
      </trkpt>
      <trkpt lat="43.79856" lon="3.55213">
        <ele>710.96526161555</ele>
        <time>2017-05-21T12:54:19Z</time>
      </trkpt>
      <trkpt lat="43.79852" lon="3.55207">
        <ele>710.96526161555</ele>
        <time>2017-05-21T12:54:47Z</time>
      </trkpt>
      <trkpt lat="43.79829" lon="3.5518">
        <ele>713.13841408349</ele>
        <time>2017-05-21T12:54:49Z</time>
      </trkpt>
      <trkpt lat="43.79822" lon="3.55169">
        <ele>715.10371522711</ele>
        <time>2017-05-21T12:54:55Z</time>
      </trkpt>
      <trkpt lat="43.79799" lon="3.55149">
        <ele>716.70106946661</ele>
        <time>2017-05-21T12:55:19Z</time>
      </trkpt>
      <trkpt lat="43.79795" lon="3.55146">
        <ele>716.70106946661</ele>
        <time>2017-05-21T12:55:19Z</time>
      </trkpt>
      <trkpt lat="43.79775" lon="3.55135">
        <ele>718.10030909364</ele>
        <time>2017-05-21T12:55:45Z</time>
      </trkpt>
      <trkpt lat="43.79767" lon="3.55129">
        <ele>718.10030909364</ele>
        <time>2017-05-21T12:55:45Z</time>
      </trkpt>
      <trkpt lat="43.7976" lon="3.55118">
        <ele>719.34414557955</ele>
        <time>2017-05-21T12:56:00Z</time>
      </trkpt>
      <trkpt lat="43.79755" lon="3.55109">
        <ele>719.34414557955</ele>
        <time>2017-05-21T12:56:00Z</time>
      </trkpt>
      <trkpt lat="43.79747" lon="3.55088">
        <ele>720.32856123136</ele>
        <time>2017-05-21T12:56:18Z</time>
      </trkpt>
      <trkpt lat="43.79745" lon="3.55075">
        <ele>721.10209579029</ele>
        <time>2017-05-21T12:56:38Z</time>
      </trkpt>
      <trkpt lat="43.79739" lon="3.55047">
        <ele>721.65273989486</ele>
        <time>2017-05-21T12:56:47Z</time>
      </trkpt>
      <trkpt lat="43.79734" lon="3.55035">
        <ele>722.02769643949</ele>
        <time>2017-05-21T12:56:47Z</time>
      </trkpt>
      <trkpt lat="43.79726" lon="3.55028">
        <ele>722.21359894597</ele>
        <time>2017-05-21T12:57:00Z</time>
      </trkpt>
      <trkpt lat="43.79666" lon="3.55015">
        <ele>721.93923067644</ele>
        <time>2017-05-21T12:57:38Z</time>
      </trkpt>
      <trkpt lat="43.79664" lon="3.55015">
        <ele>721.93923067644</ele>
        <time>2017-05-21T12:57:41Z</time>
      </trkpt>
      <trkpt lat="43.79644" lon="3.55016">
        <ele>721.34371428075</ele>
        <time>2017-05-21T12:58:00Z</time>
      </trkpt>
      <trkpt lat="43.79624" lon="3.55011">
        <ele>720.65774106855</ele>
        <time>2017-05-21T12:58:17Z</time>
      </trkpt>
      <trkpt lat="43.79616" lon="3.55006">
        <ele>720.00883718652</ele>
        <time>2017-05-21T12:58:17Z</time>
      </trkpt>
      <trkpt lat="43.79594" lon="3.5496">
        <ele>719.81766988521</ele>
        <time>2017-05-21T12:59:00Z</time>
      </trkpt>
      <trkpt lat="43.79516" lon="3.54815">
        <ele>720.83296643291</ele>
        <time>2017-05-21T13:01:01Z</time>
      </trkpt>
      <trkpt lat="43.795" lon="3.54801">
        <ele>721.90040446744</ele>
        <time>2017-05-21T13:01:22Z</time>
      </trkpt>
      <trkpt lat="43.79494" lon="3.5479">
        <ele>722.9158130464</ele>
        <time>2017-05-21T13:01:23Z</time>
      </trkpt>
      <trkpt lat="43.79457" lon="3.54724">
        <ele>724.54656626885</ele>
        <time>2017-05-21T13:02:19Z</time>
      </trkpt>
      <trkpt lat="43.79449" lon="3.54711">
        <ele>726.22753537796</ele>
        <time>2017-05-21T13:02:42Z</time>
      </trkpt>
      <trkpt lat="43.79443" lon="3.54704">
        <ele>726.22753537796</ele>
        <time>2017-05-21T13:02:42Z</time>
      </trkpt>
      <trkpt lat="43.79428" lon="3.54691">
        <ele>728.28518692817</ele>
        <time>2017-05-21T13:03:03Z</time>
      </trkpt>
      <trkpt lat="43.79423" lon="3.54689">
        <ele>728.28518692817</ele>
        <time>2017-05-21T13:03:06Z</time>
      </trkpt>
      <trkpt lat="43.79421" lon="3.54687">
        <ele>728.28518692817</ele>
        <time>2017-05-21T13:03:07Z</time>
      </trkpt>
      <trkpt lat="43.79394" lon="3.54672">
        <ele>730.516532157</ele>
        <time>2017-05-21T13:03:40Z</time>
      </trkpt>
      <trkpt lat="43.7936" lon="3.54625">
        <ele>733.43913398784</ele>
        <time>2017-05-21T13:04:16Z</time>
      </trkpt>
      <trkpt lat="43.79355" lon="3.54619">
        <ele>733.43913398784</ele>
        <time>2017-05-21T13:04:19Z</time>
      </trkpt>
      <trkpt lat="43.79353" lon="3.54617">
        <ele>733.43913398784</ele>
        <time>2017-05-21T13:04:19Z</time>
      </trkpt>
      <trkpt lat="43.79347" lon="3.54618">
        <ele>736.04624371403</ele>
        <time>2017-05-21T13:04:24Z</time>
      </trkpt>
      <trkpt lat="43.79338" lon="3.5462">
        <ele>738.08327939934</ele>
        <time>2017-05-21T13:04:39Z</time>
      </trkpt>
      <trkpt lat="43.79338" lon="3.54619">
        <ele>738.08327939934</ele>
        <time>2017-05-21T13:04:44Z</time>
      </trkpt>
      <trkpt lat="43.79335" lon="3.54617">
        <ele>738.08327939934</ele>
        <time>2017-05-21T13:04:54Z</time>
      </trkpt>
      <trkpt lat="43.79332" lon="3.54611">
        <ele>739.41685014953</ele>
        <time>2017-05-21T13:04:59Z</time>
      </trkpt>
      <trkpt lat="43.79327" lon="3.54601">
        <ele>739.41685014953</ele>
        <time>2017-05-21T13:05:06Z</time>
      </trkpt>
      <trkpt lat="43.79327" lon="3.54598">
        <ele>740.40092247108</ele>
        <time>2017-05-21T13:05:09Z</time>
      </trkpt>
      <trkpt lat="43.79321" lon="3.54584">
        <ele>741.23476063464</ele>
        <time>2017-05-21T13:05:19Z</time>
      </trkpt>
      <trkpt lat="43.79318" lon="3.54577">
        <ele>741.23476063464</ele>
        <time>2017-05-21T13:05:24Z</time>
      </trkpt>
      <trkpt lat="43.79315" lon="3.54563">
        <ele>741.87285204762</ele>
        <time>2017-05-21T13:05:34Z</time>
      </trkpt>
      <trkpt lat="43.79302" lon="3.54508">
        <ele>742.21594477515</ele>
        <time>2017-05-21T13:06:17Z</time>
      </trkpt>
      <trkpt lat="43.793" lon="3.54505">
        <ele>742.21594477515</ele>
        <time>2017-05-21T13:06:19Z</time>
      </trkpt>
      <trkpt lat="43.79297" lon="3.54497">
        <ele>742.50436771519</ele>
        <time>2017-05-21T13:06:34Z</time>
      </trkpt>
      <trkpt lat="43.79291" lon="3.54487">
        <ele>742.70154799348</ele>
        <time>2017-05-21T13:06:34Z</time>
      </trkpt>
      <trkpt lat="43.79282" lon="3.54474">
        <ele>742.86031374423</ele>
        <time>2017-05-21T13:06:49Z</time>
      </trkpt>
      <trkpt lat="43.79273" lon="3.54449">
        <ele>743.13058201108</ele>
        <time>2017-05-21T13:06:59Z</time>
      </trkpt>
      <trkpt lat="43.79252" lon="3.54406">
        <ele>743.53563233853</ele>
        <time>2017-05-21T13:07:37Z</time>
      </trkpt>
      <trkpt lat="43.79242" lon="3.54397">
        <ele>743.69311524316</ele>
        <time>2017-05-21T13:07:37Z</time>
      </trkpt>
      <trkpt lat="43.79136" lon="3.54325">
        <ele>742.05330164181</ele>
        <time>2017-05-21T13:09:41Z</time>
      </trkpt>
      <trkpt lat="43.79126" lon="3.54321">
        <ele>740.48544330578</ele>
        <time>2017-05-21T13:09:41Z</time>
      </trkpt>
      <trkpt lat="43.79118" lon="3.54324">
        <ele>740.48544330578</ele>
        <time>2017-05-21T13:09:54Z</time>
      </trkpt>
      <trkpt lat="43.79088" lon="3.54324">
        <ele>738.67483422556</ele>
        <time>2017-05-21T13:10:16Z</time>
      </trkpt>
      <trkpt lat="43.79067" lon="3.54327">
        <ele>736.69076520722</ele>
        <time>2017-05-21T13:10:33Z</time>
      </trkpt>
      <trkpt lat="43.79027" lon="3.54318">
        <ele>734.42489089426</ele>
        <time>2017-05-21T13:11:00Z</time>
      </trkpt>
      <trkpt lat="43.78965" lon="3.54326">
        <ele>730.97047310658</ele>
        <time>2017-05-21T13:11:58Z</time>
      </trkpt>
      <trkpt lat="43.78947" lon="3.54331">
        <ele>727.43607571056</ele>
        <time>2017-05-21T13:12:17Z</time>
      </trkpt>
      <trkpt lat="43.78926" lon="3.54328">
        <ele>723.81128767099</ele>
        <time>2017-05-21T13:12:38Z</time>
      </trkpt>
      <trkpt lat="43.78894" lon="3.54315">
        <ele>720.2594616437</ele>
        <time>2017-05-21T13:12:59Z</time>
      </trkpt>
      <trkpt lat="43.78879" lon="3.54309">
        <ele>716.72977899053</ele>
        <time>2017-05-21T13:13:12Z</time>
      </trkpt>
      <trkpt lat="43.78833" lon="3.54282">
        <ele>712.68488118145</ele>
        <time>2017-05-21T13:14:05Z</time>
      </trkpt>
      <trkpt lat="43.78819" lon="3.54285">
        <ele>708.59362090701</ele>
        <time>2017-05-21T13:14:14Z</time>
      </trkpt>
      <trkpt lat="43.78815" lon="3.54284">
        <ele>708.59362090701</ele>
        <time>2017-05-21T13:14:19Z</time>
      </trkpt>
      <trkpt lat="43.78787" lon="3.54284">
        <ele>703.89589944149</ele>
        <time>2017-05-21T13:14:48Z</time>
      </trkpt>
      <trkpt lat="43.78786" lon="3.54282">
        <ele>703.89589944149</ele>
        <time>2017-05-21T13:14:56Z</time>
      </trkpt>
      <trkpt lat="43.78782" lon="3.54284">
        <ele>703.89589944149</ele>
        <time>2017-05-21T13:14:56Z</time>
      </trkpt>
      <trkpt lat="43.78734" lon="3.54282">
        <ele>698.4056260435</ele>
        <time>2017-05-21T13:15:44Z</time>
      </trkpt>
      <trkpt lat="43.78717" lon="3.54264">
        <ele>693.24928961575</ele>
        <time>2017-05-21T13:16:09Z</time>
      </trkpt>
      <trkpt lat="43.78708" lon="3.54253">
        <ele>688.40293390537</ele>
        <time>2017-05-21T13:16:09Z</time>
      </trkpt>
      <trkpt lat="43.78699" lon="3.54236">
        <ele>683.94401793749</ele>
        <time>2017-05-21T13:16:22Z</time>
      </trkpt>
      <trkpt lat="43.78688" lon="3.54191">
        <ele>679.91403445724</ele>
        <time>2017-05-21T13:16:50Z</time>
      </trkpt>
      <trkpt lat="43.78686" lon="3.54184">
        <ele>679.91403445724</ele>
        <time>2017-05-21T13:16:55Z</time>
      </trkpt>
      <trkpt lat="43.7868" lon="3.54163">
        <ele>676.3066155512</ele>
        <time>2017-05-21T13:17:09Z</time>
      </trkpt>
      <trkpt lat="43.78679" lon="3.54161">
        <ele>676.3066155512</ele>
        <time>2017-05-21T13:17:09Z</time>
      </trkpt>
      <trkpt lat="43.78666" lon="3.5414">
        <ele>672.94136223301</ele>
        <time>2017-05-21T13:17:36Z</time>
      </trkpt>
      <trkpt lat="43.78662" lon="3.54138">
        <ele>672.94136223301</ele>
        <time>2017-05-21T13:17:36Z</time>
      </trkpt>
      <trkpt lat="43.78655" lon="3.54132">
        <ele>669.89505767287</ele>
        <time>2017-05-21T13:17:52Z</time>
      </trkpt>
      <trkpt lat="43.78646" lon="3.54124">
        <ele>667.12228590561</ele>
        <time>2017-05-21T13:17:53Z</time>
      </trkpt>
      <trkpt lat="43.78639" lon="3.54108">
        <ele>664.53659917546</ele>
        <time>2017-05-21T13:18:14Z</time>
      </trkpt>
      <trkpt lat="43.78635" lon="3.54106">
        <ele>664.53659917546</ele>
        <time>2017-05-21T13:18:22Z</time>
      </trkpt>
      <trkpt lat="43.78632" lon="3.54103">
        <ele>664.53659917546</ele>
        <time>2017-05-21T13:18:29Z</time>
      </trkpt>
      <trkpt lat="43.78629" lon="3.54099">
        <ele>662.27318526665</ele>
        <time>2017-05-21T13:18:37Z</time>
      </trkpt>
      <trkpt lat="43.78562" lon="3.54097">
        <ele>661.50806704529</ele>
        <time>2017-05-21T13:20:45Z</time>
      </trkpt>
      <trkpt lat="43.7855" lon="3.54093">
        <ele>661.27997354242</ele>
        <time>2017-05-21T13:21:05Z</time>
      </trkpt>
      <trkpt lat="43.78545" lon="3.54095">
        <ele>661.27997354242</ele>
        <time>2017-05-21T13:21:05Z</time>
      </trkpt>
      <trkpt lat="43.78528" lon="3.54095">
        <ele>661.54669994969</ele>
        <time>2017-05-21T13:21:23Z</time>
      </trkpt>
      <trkpt lat="43.78527" lon="3.54095">
        <ele>661.54669994969</ele>
        <time>2017-05-21T13:21:23Z</time>
      </trkpt>
      <trkpt lat="43.78525" lon="3.54094">
        <ele>661.54669994969</ele>
        <time>2017-05-21T13:21:26Z</time>
      </trkpt>
      <trkpt lat="43.78495" lon="3.54075">
        <ele>662.51247498193</ele>
        <time>2017-05-21T13:22:00Z</time>
      </trkpt>
      <trkpt lat="43.78463" lon="3.54054">
        <ele>664.04728605037</ele>
        <time>2017-05-21T13:22:32Z</time>
      </trkpt>
      <trkpt lat="43.78459" lon="3.54048">
        <ele>664.04728605037</ele>
        <time>2017-05-21T13:22:34Z</time>
      </trkpt>
      <trkpt lat="43.78412" lon="3.53995">
        <ele>666.18740157295</ele>
        <time>2017-05-21T13:23:37Z</time>
      </trkpt>
      <trkpt lat="43.78408" lon="3.53998">
        <ele>666.18740157295</ele>
        <time>2017-05-21T13:23:45Z</time>
      </trkpt>
      <trkpt lat="43.78407" lon="3.54001">
        <ele>666.18740157295</ele>
        <time>2017-05-21T13:23:49Z</time>
      </trkpt>
      <trkpt lat="43.78393" lon="3.53994">
        <ele>668.12872625277</ele>
        <time>2017-05-21T13:24:19Z</time>
      </trkpt>
      <trkpt lat="43.78389" lon="3.53991">
        <ele>668.12872625277</ele>
        <time>2017-05-21T13:24:19Z</time>
      </trkpt>
      <trkpt lat="43.78384" lon="3.53985">
        <ele>670.06339634298</ele>
        <time>2017-05-21T13:24:37Z</time>
      </trkpt>
      <trkpt lat="43.78383" lon="3.53983">
        <ele>670.06339634298</ele>
        <time>2017-05-21T13:24:47Z</time>
      </trkpt>
      <trkpt lat="43.78367" lon="3.53964">
        <ele>671.90997365242</ele>
        <time>2017-05-21T13:24:48Z</time>
      </trkpt>
      <trkpt lat="43.78343" lon="3.53935">
        <ele>673.44909492488</ele>
        <time>2017-05-21T13:25:30Z</time>
      </trkpt>
      <trkpt lat="43.78321" lon="3.53924">
        <ele>674.55041702819</ele>
        <time>2017-05-21T13:26:06Z</time>
      </trkpt>
      <trkpt lat="43.7831" lon="3.53911">
        <ele>675.52674836061</ele>
        <time>2017-05-21T13:26:26Z</time>
      </trkpt>
      <trkpt lat="43.78303" lon="3.5389">
        <ele>676.23597349037</ele>
        <time>2017-05-21T13:26:48Z</time>
      </trkpt>
      <trkpt lat="43.783" lon="3.53886">
        <ele>676.23597349037</ele>
        <time>2017-05-21T13:26:54Z</time>
      </trkpt>
      <trkpt lat="43.78295" lon="3.5387">
        <ele>676.77780040757</ele>
        <time>2017-05-21T13:27:11Z</time>
      </trkpt>
      <trkpt lat="43.78279" lon="3.53855">
        <ele>676.89928675296</ele>
        <time>2017-05-21T13:27:46Z</time>
      </trkpt>
      <trkpt lat="43.78275" lon="3.53858">
        <ele>676.89928675296</ele>
        <time>2017-05-21T13:27:46Z</time>
      </trkpt>
      <trkpt lat="43.78272" lon="3.53863">
        <ele>676.84290008817</ele>
        <time>2017-05-21T13:27:58Z</time>
      </trkpt>
      <trkpt lat="43.78272" lon="3.53865">
        <ele>676.84290008817</ele>
        <time>2017-05-21T13:27:58Z</time>
      </trkpt>
      <trkpt lat="43.78265" lon="3.5386">
        <ele>676.84290008817</ele>
        <time>2017-05-21T13:28:25Z</time>
      </trkpt>
      <trkpt lat="43.78265" lon="3.53865">
        <ele>675.46482856108</ele>
        <time>2017-05-21T13:29:18Z</time>
      </trkpt>
      <trkpt lat="43.78254" lon="3.53882">
        <ele>673.19342682902</ele>
        <time>2017-05-21T13:30:00Z</time>
      </trkpt>
      <trkpt lat="43.78248" lon="3.53892">
        <ele>673.19342682902</ele>
        <time>2017-05-21T13:30:24Z</time>
      </trkpt>
      <trkpt lat="43.78213" lon="3.53891">
        <ele>669.86613919256</ele>
        <time>2017-05-21T13:31:31Z</time>
      </trkpt>
      <trkpt lat="43.78199" lon="3.53892">
        <ele>666.54591879268</ele>
        <time>2017-05-21T13:31:50Z</time>
      </trkpt>
      <trkpt lat="43.78193" lon="3.53894">
        <ele>666.54591879268</ele>
        <time>2017-05-21T13:31:50Z</time>
      </trkpt>
      <trkpt lat="43.7819" lon="3.53894">
        <ele>663.36741397892</ele>
        <time>2017-05-21T13:31:53Z</time>
      </trkpt>
      <trkpt lat="43.78171" lon="3.53897">
        <ele>660.0659199477</ele>
        <time>2017-05-21T13:32:10Z</time>
      </trkpt>
      <trkpt lat="43.78163" lon="3.53896">
        <ele>660.0659199477</ele>
        <time>2017-05-21T13:32:20Z</time>
      </trkpt>
      <trkpt lat="43.78149" lon="3.53899">
        <ele>656.26683776147</ele>
        <time>2017-05-21T13:32:35Z</time>
      </trkpt>
      <trkpt lat="43.78149" lon="3.53899">
        <ele>656.26683776147</ele>
        <time>2017-05-21T13:32:36Z</time>
      </trkpt>
      <trkpt lat="43.78128" lon="3.53899">
        <ele>651.55242177978</ele>
        <time>2017-05-21T13:33:16Z</time>
      </trkpt>
      <trkpt lat="43.78122" lon="3.53902">
        <ele>651.55242177978</ele>
        <time>2017-05-21T13:33:16Z</time>
      </trkpt>
      <trkpt lat="43.781" lon="3.53889">
        <ele>645.13464107613</ele>
        <time>2017-05-21T13:33:49Z</time>
      </trkpt>
      <trkpt lat="43.78097" lon="3.53887">
        <ele>645.13464107613</ele>
        <time>2017-05-21T13:33:49Z</time>
      </trkpt>
      <trkpt lat="43.7809" lon="3.5388">
        <ele>638.32004134753</ele>
        <time>2017-05-21T13:34:08Z</time>
      </trkpt>
      <trkpt lat="43.7808" lon="3.53878">
        <ele>631.85905813079</ele>
        <time>2017-05-21T13:34:08Z</time>
      </trkpt>
      <trkpt lat="43.78063" lon="3.53875">
        <ele>625.26417281231</ele>
        <time>2017-05-21T13:34:29Z</time>
      </trkpt>
      <trkpt lat="43.78063" lon="3.53874">
        <ele>625.26417281231</ele>
        <time>2017-05-21T13:34:30Z</time>
      </trkpt>
      <trkpt lat="43.78059" lon="3.53873">
        <ele>625.26417281231</ele>
        <time>2017-05-21T13:34:35Z</time>
      </trkpt>
      <trkpt lat="43.78039" lon="3.5387">
        <ele>618.83327552125</ele>
        <time>2017-05-21T13:34:54Z</time>
      </trkpt>
      <trkpt lat="43.7797" lon="3.53856">
        <ele>611.57354542727</ele>
        <time>2017-05-21T13:36:05Z</time>
      </trkpt>
      <trkpt lat="43.77955" lon="3.53835">
        <ele>604.71445652811</ele>
        <time>2017-05-21T13:36:32Z</time>
      </trkpt>
      <trkpt lat="43.77941" lon="3.53817">
        <ele>598.31296376396</ele>
        <time>2017-05-21T13:36:38Z</time>
      </trkpt>
      <trkpt lat="43.7794" lon="3.53817">
        <ele>598.31296376396</ele>
        <time>2017-05-21T13:36:41Z</time>
      </trkpt>
      <trkpt lat="43.77928" lon="3.53807">
        <ele>592.36264237501</ele>
        <time>2017-05-21T13:36:59Z</time>
      </trkpt>
      <trkpt lat="43.77924" lon="3.53806">
        <ele>592.36264237501</ele>
        <time>2017-05-21T13:36:59Z</time>
      </trkpt>
      <trkpt lat="43.77915" lon="3.538">
        <ele>586.81275462422</ele>
        <time>2017-05-21T13:37:10Z</time>
      </trkpt>
      <trkpt lat="43.77883" lon="3.53816">
        <ele>580.70696629709</ele>
        <time>2017-05-21T13:38:07Z</time>
      </trkpt>
      <trkpt lat="43.77881" lon="3.53816">
        <ele>580.70696629709</ele>
        <time>2017-05-21T13:38:07Z</time>
      </trkpt>
      <trkpt lat="43.77875" lon="3.5383">
        <ele>574.90418961424</ele>
        <time>2017-05-21T13:38:24Z</time>
      </trkpt>
      <trkpt lat="43.7787" lon="3.53836">
        <ele>574.90418961424</ele>
        <time>2017-05-21T13:38:31Z</time>
      </trkpt>
      <trkpt lat="43.77859" lon="3.53833">
        <ele>569.04618468284</ele>
        <time>2017-05-21T13:39:05Z</time>
      </trkpt>
      <trkpt lat="43.77799" lon="3.538">
        <ele>563.17554795484</ele>
        <time>2017-05-21T13:40:02Z</time>
      </trkpt>
      <trkpt lat="43.778" lon="3.53796">
        <ele>563.17554795484</ele>
        <time>2017-05-21T13:40:05Z</time>
      </trkpt>
      <trkpt lat="43.77795" lon="3.5379">
        <ele>557.72055438138</ele>
        <time>2017-05-21T13:40:14Z</time>
      </trkpt>
      <trkpt lat="43.77783" lon="3.53781">
        <ele>552.73065600482</ele>
        <time>2017-05-21T13:40:30Z</time>
      </trkpt>
      <trkpt lat="43.77761" lon="3.53781">
        <ele>547.97622850193</ele>
        <time>2017-05-21T13:40:57Z</time>
      </trkpt>
      <trkpt lat="43.77757" lon="3.5378">
        <ele>547.97622850193</ele>
        <time>2017-05-21T13:41:05Z</time>
      </trkpt>
      <trkpt lat="43.77753" lon="3.53778">
        <ele>547.97622850193</ele>
        <time>2017-05-21T13:41:05Z</time>
      </trkpt>
      <trkpt lat="43.77722" lon="3.53775">
        <ele>543.07059822188</ele>
        <time>2017-05-21T13:41:52Z</time>
      </trkpt>
      <trkpt lat="43.77714" lon="3.53775">
        <ele>543.07059822188</ele>
        <time>2017-05-21T13:41:52Z</time>
      </trkpt>
      <trkpt lat="43.77683" lon="3.53777">
        <ele>538.03029256811</ele>
        <time>2017-05-21T13:42:29Z</time>
      </trkpt>
      <trkpt lat="43.77679" lon="3.53779">
        <ele>538.03029256811</ele>
        <time>2017-05-21T13:42:36Z</time>
      </trkpt>
      <trkpt lat="43.77678" lon="3.53779">
        <ele>538.03029256811</ele>
        <time>2017-05-21T13:42:39Z</time>
      </trkpt>
      <trkpt lat="43.77675" lon="3.53786">
        <ele>532.89951530415</ele>
        <time>2017-05-21T13:43:09Z</time>
      </trkpt>
      <trkpt lat="43.77668" lon="3.53789">
        <ele>532.89951530415</ele>
        <time>2017-05-21T13:43:23Z</time>
      </trkpt>
      <trkpt lat="43.77678" lon="3.53813">
        <ele>528.16591990985</ele>
        <time>2017-05-21T13:43:44Z</time>
      </trkpt>
      <trkpt lat="43.77702" lon="3.53858">
        <ele>524.49609823409</ele>
        <time>2017-05-21T13:44:20Z</time>
      </trkpt>
      <trkpt lat="43.77736" lon="3.53935">
        <ele>521.84150152998</ele>
        <time>2017-05-21T13:45:20Z</time>
      </trkpt>
      <trkpt lat="43.77744" lon="3.53947">
        <ele>519.83699623543</ele>
        <time>2017-05-21T13:45:21Z</time>
      </trkpt>
      <trkpt lat="43.77793" lon="3.53956">
        <ele>518.57454770696</ele>
        <time>2017-05-21T13:46:16Z</time>
      </trkpt>
      <trkpt lat="43.77809" lon="3.53964">
        <ele>517.86327006413</ele>
        <time>2017-05-21T13:46:26Z</time>
      </trkpt>
      <trkpt lat="43.77815" lon="3.53968">
        <ele>517.86327006413</ele>
        <time>2017-05-21T13:46:29Z</time>
      </trkpt>
      <trkpt lat="43.77827" lon="3.53986">
        <ele>517.55340789055</ele>
        <time>2017-05-21T13:46:43Z</time>
      </trkpt>
      <trkpt lat="43.77828" lon="3.53988">
        <ele>517.55340789055</ele>
        <time>2017-05-21T13:46:44Z</time>
      </trkpt>
      <trkpt lat="43.77841" lon="3.54004">
        <ele>517.72111684247</ele>
        <time>2017-05-21T13:47:00Z</time>
      </trkpt>
      <trkpt lat="43.77843" lon="3.54005">
        <ele>517.72111684247</ele>
        <time>2017-05-21T13:47:00Z</time>
      </trkpt>
      <trkpt lat="43.77873" lon="3.54039">
        <ele>518.65169456116</ele>
        <time>2017-05-21T13:47:36Z</time>
      </trkpt>
      <trkpt lat="43.77897" lon="3.54062">
        <ele>520.1461360161</ele>
        <time>2017-05-21T13:47:58Z</time>
      </trkpt>
      <trkpt lat="43.77912" lon="3.54082">
        <ele>521.90317803426</ele>
        <time>2017-05-21T13:48:14Z</time>
      </trkpt>
      <trkpt lat="43.77914" lon="3.54086">
        <ele>521.90317803426</ele>
        <time>2017-05-21T13:48:14Z</time>
      </trkpt>
      <trkpt lat="43.7792" lon="3.54098">
        <ele>523.77268873742</ele>
        <time>2017-05-21T13:48:22Z</time>
      </trkpt>
      <trkpt lat="43.77927" lon="3.54108">
        <ele>525.75944093129</ele>
        <time>2017-05-21T13:48:30Z</time>
      </trkpt>
      <trkpt lat="43.77932" lon="3.54119">
        <ele>527.83882754135</ele>
        <time>2017-05-21T13:48:47Z</time>
      </trkpt>
      <trkpt lat="43.77938" lon="3.54131">
        <ele>529.9158943677</ele>
        <time>2017-05-21T13:48:47Z</time>
      </trkpt>
      <trkpt lat="43.77945" lon="3.54148">
        <ele>532.03256579165</ele>
        <time>2017-05-21T13:49:00Z</time>
      </trkpt>
      <trkpt lat="43.77959" lon="3.54174">
        <ele>534.22780532112</ele>
        <time>2017-05-21T13:49:26Z</time>
      </trkpt>
      <trkpt lat="43.77961" lon="3.54182">
        <ele>534.22780532112</ele>
        <time>2017-05-21T13:49:26Z</time>
      </trkpt>
      <trkpt lat="43.77963" lon="3.54273">
        <ele>535.9324863424</ele>
        <time>2017-05-21T13:50:24Z</time>
      </trkpt>
      <trkpt lat="43.77963" lon="3.54281">
        <ele>535.9324863424</ele>
        <time>2017-05-21T13:50:29Z</time>
      </trkpt>
      <trkpt lat="43.77969" lon="3.54306">
        <ele>537.60090739968</ele>
        <time>2017-05-21T13:50:48Z</time>
      </trkpt>
      <trkpt lat="43.77983" lon="3.54356">
        <ele>539.15001456838</ele>
        <time>2017-05-21T13:51:27Z</time>
      </trkpt>
      <trkpt lat="43.77988" lon="3.54376">
        <ele>540.61880424261</ele>
        <time>2017-05-21T13:51:27Z</time>
      </trkpt>
      <trkpt lat="43.78005" lon="3.54417">
        <ele>541.64046173763</ele>
        <time>2017-05-21T13:51:52Z</time>
      </trkpt>
      <trkpt lat="43.78024" lon="3.54431">
        <ele>541.40115398097</ele>
        <time>2017-05-21T13:52:55Z</time>
      </trkpt>
      <trkpt lat="43.78029" lon="3.54392">
        <ele>540.26037549067</ele>
        <time>2017-05-21T13:54:00Z</time>
      </trkpt>
      <trkpt lat="43.78043" lon="3.54422">
        <ele>538.72702101619</ele>
        <time>2017-05-21T13:54:24Z</time>
      </trkpt>
      <trkpt lat="43.7805" lon="3.54427">
        <ele>538.72702101619</ele>
        <time>2017-05-21T13:54:46Z</time>
      </trkpt>
      <trkpt lat="43.78057" lon="3.54437">
        <ele>536.71200474582</ele>
        <time>2017-05-21T13:54:57Z</time>
      </trkpt>
      <trkpt lat="43.78059" lon="3.54439">
        <ele>536.71200474582</ele>
        <time>2017-05-21T13:55:03Z</time>
      </trkpt>
      <trkpt lat="43.78107" lon="3.54498">
        <ele>533.64447477382</ele>
        <time>2017-05-21T13:56:02Z</time>
      </trkpt>
      <trkpt lat="43.7811" lon="3.54503">
        <ele>533.64447477382</ele>
        <time>2017-05-21T13:56:15Z</time>
      </trkpt>
      <trkpt lat="43.78114" lon="3.54507">
        <ele>530.65603898229</ele>
        <time>2017-05-21T13:56:15Z</time>
      </trkpt>
      <trkpt lat="43.78124" lon="3.54519">
        <ele>527.74321413834</ele>
        <time>2017-05-21T13:56:34Z</time>
      </trkpt>
      <trkpt lat="43.78141" lon="3.54529">
        <ele>524.87398195247</ele>
        <time>2017-05-21T13:56:49Z</time>
      </trkpt>
      <trkpt lat="43.78158" lon="3.54545">
        <ele>522.03318254298</ele>
        <time>2017-05-21T13:57:16Z</time>
      </trkpt>
      <trkpt lat="43.78186" lon="3.5458">
        <ele>519.09159415607</ele>
        <time>2017-05-21T13:57:45Z</time>
      </trkpt>
      <trkpt lat="43.78191" lon="3.54588">
        <ele>519.09159415607</ele>
        <time>2017-05-21T13:57:45Z</time>
      </trkpt>
      <trkpt lat="43.78203" lon="3.54604">
        <ele>515.94435131701</ele>
        <time>2017-05-21T13:58:00Z</time>
      </trkpt>
      <trkpt lat="43.78218" lon="3.54626">
        <ele>512.62471601937</ele>
        <time>2017-05-21T13:58:22Z</time>
      </trkpt>
      <trkpt lat="43.7822" lon="3.54629">
        <ele>512.62471601937</ele>
        <time>2017-05-21T13:58:24Z</time>
      </trkpt>
      <trkpt lat="43.78253" lon="3.54693">
        <ele>508.68854742767</ele>
        <time>2017-05-21T13:59:17Z</time>
      </trkpt>
      <trkpt lat="43.78259" lon="3.54702">
        <ele>508.68854742767</ele>
        <time>2017-05-21T13:59:26Z</time>
      </trkpt>
      <trkpt lat="43.78264" lon="3.54713">
        <ele>504.93669487291</ele>
        <time>2017-05-21T13:59:40Z</time>
      </trkpt>
      <trkpt lat="43.78272" lon="3.54728">
        <ele>501.43341563997</ele>
        <time>2017-05-21T13:59:40Z</time>
      </trkpt>
      <trkpt lat="43.78274" lon="3.54729">
        <ele>501.43341563997</ele>
        <time>2017-05-21T13:59:41Z</time>
      </trkpt>
      <trkpt lat="43.78302" lon="3.54778">
        <ele>497.87732650745</ele>
        <time>2017-05-21T14:00:21Z</time>
      </trkpt>
      <trkpt lat="43.78334" lon="3.54817">
        <ele>494.55139994525</ele>
        <time>2017-05-21T14:01:00Z</time>
      </trkpt>
      <trkpt lat="43.78369" lon="3.54884">
        <ele>491.19839200091</ele>
        <time>2017-05-21T14:01:47Z</time>
      </trkpt>
      <trkpt lat="43.78392" lon="3.54941">
        <ele>487.89707666458</ele>
        <time>2017-05-21T14:02:24Z</time>
      </trkpt>
      <trkpt lat="43.78399" lon="3.54961">
        <ele>484.82116044106</ele>
        <time>2017-05-21T14:02:52Z</time>
      </trkpt>
      <trkpt lat="43.78409" lon="3.54985">
        <ele>481.87153143224</ele>
        <time>2017-05-21T14:03:00Z</time>
      </trkpt>
      <trkpt lat="43.78418" lon="3.54999">
        <ele>479.18654655753</ele>
        <time>2017-05-21T14:03:00Z</time>
      </trkpt>
      <trkpt lat="43.78425" lon="3.55012">
        <ele>476.72068034747</ele>
        <time>2017-05-21T14:03:17Z</time>
      </trkpt>
      <trkpt lat="43.78431" lon="3.55019">
        <ele>476.72068034747</ele>
        <time>2017-05-21T14:03:17Z</time>
      </trkpt>
      <trkpt lat="43.78437" lon="3.5503">
        <ele>474.30138858816</ele>
        <time>2017-05-21T14:03:33Z</time>
      </trkpt>
      <trkpt lat="43.78439" lon="3.55034">
        <ele>474.30138858816</ele>
        <time>2017-05-21T14:03:33Z</time>
      </trkpt>
      <trkpt lat="43.78457" lon="3.5506">
        <ele>471.97037537074</ele>
        <time>2017-05-21T14:04:03Z</time>
      </trkpt>
      <trkpt lat="43.78485" lon="3.55096">
        <ele>469.59304646346</ele>
        <time>2017-05-21T14:04:30Z</time>
      </trkpt>
      <trkpt lat="43.78506" lon="3.55139">
        <ele>467.20329210134</ele>
        <time>2017-05-21T14:05:00Z</time>
      </trkpt>
      <trkpt lat="43.78519" lon="3.55157">
        <ele>464.94778117487</ele>
        <time>2017-05-21T14:05:20Z</time>
      </trkpt>
      <trkpt lat="43.78524" lon="3.55172">
        <ele>462.42876419738</ele>
        <time>2017-05-21T14:05:20Z</time>
      </trkpt>
      <trkpt lat="43.78526" lon="3.55177">
        <ele>462.42876419738</ele>
        <time>2017-05-21T14:05:30Z</time>
      </trkpt>
      <trkpt lat="43.78533" lon="3.55184">
        <ele>459.84042588579</ele>
        <time>2017-05-21T14:06:10Z</time>
      </trkpt>
      <trkpt lat="43.78535" lon="3.55195">
        <ele>459.84042588579</ele>
        <time>2017-05-21T14:06:24Z</time>
      </trkpt>
      <trkpt lat="43.78547" lon="3.55219">
        <ele>456.69991050238</ele>
        <time>2017-05-21T14:06:51Z</time>
      </trkpt>
      <trkpt lat="43.78554" lon="3.55244">
        <ele>453.97361015427</ele>
        <time>2017-05-21T14:07:16Z</time>
      </trkpt>
      <trkpt lat="43.78559" lon="3.55257">
        <ele>451.54692302605</ele>
        <time>2017-05-21T14:07:17Z</time>
      </trkpt>
      <trkpt lat="43.78556" lon="3.55269">
        <ele>451.54692302605</ele>
        <time>2017-05-21T14:07:26Z</time>
      </trkpt>
      <trkpt lat="43.7856" lon="3.55283">
        <ele>449.39922756291</ele>
        <time>2017-05-21T14:07:34Z</time>
      </trkpt>
      <trkpt lat="43.78587" lon="3.55346">
        <ele>447.0494138136</ele>
        <time>2017-05-21T14:08:21Z</time>
      </trkpt>
      <trkpt lat="43.78589" lon="3.55355">
        <ele>447.0494138136</ele>
        <time>2017-05-21T14:08:27Z</time>
      </trkpt>
      <trkpt lat="43.786" lon="3.55398">
        <ele>444.88806246467</ele>
        <time>2017-05-21T14:09:00Z</time>
      </trkpt>
      <trkpt lat="43.78618" lon="3.55463">
        <ele>442.22446064717</ele>
        <time>2017-05-21T14:09:38Z</time>
      </trkpt>
      <trkpt lat="43.78618" lon="3.55463">
        <ele>442.22446064717</ele>
        <time>2017-05-21T14:09:38Z</time>
      </trkpt>
      <trkpt lat="43.78617" lon="3.55464">
        <ele>442.22446064717</ele>
        <time>2017-05-21T14:10:01Z</time>
      </trkpt>
      <trkpt lat="43.78621" lon="3.5547">
        <ele>442.22446064717</ele>
        <time>2017-05-21T14:10:02Z</time>
      </trkpt>
      <trkpt lat="43.78623" lon="3.55473">
        <ele>439.38552821843</ele>
        <time>2017-05-21T14:10:09Z</time>
      </trkpt>
      <trkpt lat="43.78631" lon="3.55481">
        <ele>436.54490112437</ele>
        <time>2017-05-21T14:10:20Z</time>
      </trkpt>
      <trkpt lat="43.78633" lon="3.55484">
        <ele>436.54490112437</ele>
        <time>2017-05-21T14:10:24Z</time>
      </trkpt>
      <trkpt lat="43.78636" lon="3.55495">
        <ele>433.47430305401</ele>
        <time>2017-05-21T14:10:44Z</time>
      </trkpt>
      <trkpt lat="43.78636" lon="3.55504">
        <ele>433.47430305401</ele>
        <time>2017-05-21T14:10:44Z</time>
      </trkpt>
      <trkpt lat="43.78639" lon="3.5552">
        <ele>430.17897421818</ele>
        <time>2017-05-21T14:10:58Z</time>
      </trkpt>
      <trkpt lat="43.7864" lon="3.55522">
        <ele>430.17897421818</ele>
        <time>2017-05-21T14:11:05Z</time>
      </trkpt>
      <trkpt lat="43.78654" lon="3.55554">
        <ele>426.60668761146</ele>
        <time>2017-05-21T14:11:22Z</time>
      </trkpt>
      <trkpt lat="43.78701" lon="3.55633">
        <ele>421.08129729087</ele>
        <time>2017-05-21T14:12:22Z</time>
      </trkpt>
      <trkpt lat="43.78704" lon="3.5564">
        <ele>421.08129729087</ele>
        <time>2017-05-21T14:12:30Z</time>
      </trkpt>
      <trkpt lat="43.78706" lon="3.55656">
        <ele>415.57149012772</ele>
        <time>2017-05-21T14:12:39Z</time>
      </trkpt>
      <trkpt lat="43.78708" lon="3.55708">
        <ele>409.39365301254</ele>
        <time>2017-05-21T14:13:10Z</time>
      </trkpt>
      <trkpt lat="43.78711" lon="3.55784">
        <ele>402.11789539896</ele>
        <time>2017-05-21T14:13:50Z</time>
      </trkpt>
      <trkpt lat="43.78714" lon="3.55794">
        <ele>402.11789539896</ele>
        <time>2017-05-21T14:13:59Z</time>
      </trkpt>
      <trkpt lat="43.78717" lon="3.558">
        <ele>394.93405935081</ele>
        <time>2017-05-21T14:14:04Z</time>
      </trkpt>
      <trkpt lat="43.78724" lon="3.55807">
        <ele>387.99301505858</ele>
        <time>2017-05-21T14:14:14Z</time>
      </trkpt>
      <trkpt lat="43.78725" lon="3.55808">
        <ele>387.99301505858</ele>
        <time>2017-05-21T14:14:19Z</time>
      </trkpt>
      <trkpt lat="43.78727" lon="3.55813">
        <ele>387.99301505858</ele>
        <time>2017-05-21T14:14:24Z</time>
      </trkpt>
      <trkpt lat="43.78726" lon="3.55814">
        <ele>387.99301505858</ele>
        <time>2017-05-21T14:14:29Z</time>
      </trkpt>
      <trkpt lat="43.78724" lon="3.55814">
        <ele>387.99301505858</ele>
        <time>2017-05-21T14:14:34Z</time>
      </trkpt>
      <trkpt lat="43.78723" lon="3.55817">
        <ele>380.25195501276</ele>
        <time>2017-05-21T14:14:44Z</time>
      </trkpt>
      <trkpt lat="43.78732" lon="3.55815">
        <ele>373.22540492036</ele>
        <time>2017-05-21T14:14:59Z</time>
      </trkpt>
      <trkpt lat="43.78735" lon="3.55816">
        <ele>373.22540492036</ele>
        <time>2017-05-21T14:15:04Z</time>
      </trkpt>
      <trkpt lat="43.78746" lon="3.5584">
        <ele>366.97414780853</ele>
        <time>2017-05-21T14:15:41Z</time>
      </trkpt>
      <trkpt lat="43.78759" lon="3.55854">
        <ele>361.46559554049</ele>
        <time>2017-05-21T14:15:59Z</time>
      </trkpt>
      <trkpt lat="43.78779" lon="3.55868">
        <ele>356.62396249872</ele>
        <time>2017-05-21T14:16:16Z</time>
      </trkpt>
      <trkpt lat="43.78789" lon="3.55882">
        <ele>352.44893800068</ele>
        <time>2017-05-21T14:16:24Z</time>
      </trkpt>
      <trkpt lat="43.78802" lon="3.55902">
        <ele>348.79398042003</ele>
        <time>2017-05-21T14:16:36Z</time>
      </trkpt>
      <trkpt lat="43.78804" lon="3.55903">
        <ele>348.79398042003</ele>
        <time>2017-05-21T14:16:37Z</time>
      </trkpt>
      <trkpt lat="43.78805" lon="3.55906">
        <ele>348.79398042003</ele>
        <time>2017-05-21T14:16:39Z</time>
      </trkpt>
      <trkpt lat="43.78809" lon="3.55908">
        <ele>348.79398042003</ele>
        <time>2017-05-21T14:16:44Z</time>
      </trkpt>
      <trkpt lat="43.78833" lon="3.55972">
        <ele>345.60805824494</ele>
        <time>2017-05-21T14:17:28Z</time>
      </trkpt>
      <trkpt lat="43.78862" lon="3.56065">
        <ele>342.91438088034</ele>
        <time>2017-05-21T14:18:27Z</time>
      </trkpt>
      <trkpt lat="43.78862" lon="3.56066">
        <ele>342.91438088034</ele>
        <time>2017-05-21T14:18:36Z</time>
      </trkpt>
      <trkpt lat="43.7887" lon="3.56074">
        <ele>340.73284321154</ele>
        <time>2017-05-21T14:18:36Z</time>
      </trkpt>
      <trkpt lat="43.78878" lon="3.56085">
        <ele>338.87847975003</ele>
        <time>2017-05-21T14:18:42Z</time>
      </trkpt>
      <trkpt lat="43.78881" lon="3.5609">
        <ele>338.87847975003</ele>
        <time>2017-05-21T14:18:44Z</time>
      </trkpt>
      <trkpt lat="43.78886" lon="3.56096">
        <ele>337.40939076585</ele>
        <time>2017-05-21T14:18:49Z</time>
      </trkpt>
      <trkpt lat="43.78927" lon="3.56173">
        <ele>336.13318368102</ele>
        <time>2017-05-21T14:19:48Z</time>
      </trkpt>
      <trkpt lat="43.78932" lon="3.56186">
        <ele>335.20238664317</ele>
        <time>2017-05-21T14:19:51Z</time>
      </trkpt>
      <trkpt lat="43.78954" lon="3.56253">
        <ele>334.39697802779</ele>
        <time>2017-05-21T14:20:37Z</time>
      </trkpt>
      <trkpt lat="43.78983" lon="3.56287">
        <ele>333.78648898279</ele>
        <time>2017-05-21T14:21:02Z</time>
      </trkpt>
      <trkpt lat="43.78985" lon="3.56289">
        <ele>333.78648898279</ele>
        <time>2017-05-21T14:21:02Z</time>
      </trkpt>
      <trkpt lat="43.79" lon="3.56307">
        <ele>333.57886702259</ele>
        <time>2017-05-21T14:21:27Z</time>
      </trkpt>
      <trkpt lat="43.79008" lon="3.56314">
        <ele>333.63418693789</ele>
        <time>2017-05-21T14:21:27Z</time>
      </trkpt>
      <trkpt lat="43.79013" lon="3.56322">
        <ele>333.63418693789</ele>
        <time>2017-05-21T14:21:38Z</time>
      </trkpt>
      <trkpt lat="43.79031" lon="3.5634">
        <ele>333.90854927042</ele>
        <time>2017-05-21T14:21:59Z</time>
      </trkpt>
      <trkpt lat="43.79035" lon="3.56345">
        <ele>333.90854927042</ele>
        <time>2017-05-21T14:21:59Z</time>
      </trkpt>
      <trkpt lat="43.79055" lon="3.5636">
        <ele>334.04366662952</ele>
        <time>2017-05-21T14:22:14Z</time>
      </trkpt>
      <trkpt lat="43.79084" lon="3.56404">
        <ele>333.83773502444</ele>
        <time>2017-05-21T14:22:59Z</time>
      </trkpt>
      <trkpt lat="43.79094" lon="3.56408">
        <ele>333.69568529117</ele>
        <time>2017-05-21T14:22:59Z</time>
      </trkpt>
      <trkpt lat="43.79107" lon="3.56432">
        <ele>333.54589831906</ele>
        <time>2017-05-21T14:23:16Z</time>
      </trkpt>
      <trkpt lat="43.79108" lon="3.56433">
        <ele>333.54589831906</ele>
        <time>2017-05-21T14:23:17Z</time>
      </trkpt>
      <trkpt lat="43.79108" lon="3.56435">
        <ele>333.54589831906</ele>
        <time>2017-05-21T14:23:19Z</time>
      </trkpt>
      <trkpt lat="43.79115" lon="3.56449">
        <ele>333.30776556294</ele>
        <time>2017-05-21T14:23:40Z</time>
      </trkpt>
      <trkpt lat="43.79121" lon="3.56458">
        <ele>333.30776556294</ele>
        <time>2017-05-21T14:23:40Z</time>
      </trkpt>
      <trkpt lat="43.79127" lon="3.56477">
        <ele>332.97905875468</ele>
        <time>2017-05-21T14:23:54Z</time>
      </trkpt>
      <trkpt lat="43.79134" lon="3.56497">
        <ele>332.71665976053</ele>
        <time>2017-05-21T14:24:17Z</time>
      </trkpt>
      <trkpt lat="43.79131" lon="3.56505">
        <ele>332.71665976053</ele>
        <time>2017-05-21T14:24:17Z</time>
      </trkpt>
      <trkpt lat="43.79134" lon="3.56519">
        <ele>332.46416720302</ele>
        <time>2017-05-21T14:24:33Z</time>
      </trkpt>
      <trkpt lat="43.79144" lon="3.56543">
        <ele>332.16948900169</ele>
        <time>2017-05-21T14:24:45Z</time>
      </trkpt>
      <trkpt lat="43.79145" lon="3.56553">
        <ele>332.16948900169</ele>
        <time>2017-05-21T14:24:50Z</time>
      </trkpt>
      <trkpt lat="43.79161" lon="3.56573">
        <ele>331.3955805344</ele>
        <time>2017-05-21T14:25:10Z</time>
      </trkpt>
      <trkpt lat="43.79162" lon="3.56583">
        <ele>331.3955805344</ele>
        <time>2017-05-21T14:25:10Z</time>
      </trkpt>
      <trkpt lat="43.79171" lon="3.566">
        <ele>330.4740227426</ele>
        <time>2017-05-21T14:25:28Z</time>
      </trkpt>
      <trkpt lat="43.79174" lon="3.56609">
        <ele>330.4740227426</ele>
        <time>2017-05-21T14:25:29Z</time>
      </trkpt>
      <trkpt lat="43.79178" lon="3.56618">
        <ele>329.56855526958</ele>
        <time>2017-05-21T14:25:44Z</time>
      </trkpt>
      <trkpt lat="43.79188" lon="3.56631">
        <ele>328.62930407639</ele>
        <time>2017-05-21T14:25:44Z</time>
      </trkpt>
      <trkpt lat="43.79188" lon="3.56632">
        <ele>328.62930407639</ele>
        <time>2017-05-21T14:25:45Z</time>
      </trkpt>
      <trkpt lat="43.79201" lon="3.56659">
        <ele>327.69683577726</ele>
        <time>2017-05-21T14:26:02Z</time>
      </trkpt>
      <trkpt lat="43.79202" lon="3.56661">
        <ele>327.69683577726</ele>
        <time>2017-05-21T14:26:02Z</time>
      </trkpt>
      <trkpt lat="43.79203" lon="3.56661">
        <ele>327.69683577726</ele>
        <time>2017-05-21T14:26:06Z</time>
      </trkpt>
      <trkpt lat="43.79213" lon="3.56677">
        <ele>326.82334390306</ele>
        <time>2017-05-21T14:26:26Z</time>
      </trkpt>
      <trkpt lat="43.79218" lon="3.56688">
        <ele>326.01400283258</ele>
        <time>2017-05-21T14:26:26Z</time>
      </trkpt>
      <trkpt lat="43.79236" lon="3.56723">
        <ele>325.18717242882</ele>
        <time>2017-05-21T14:26:48Z</time>
      </trkpt>
      <trkpt lat="43.79237" lon="3.56724">
        <ele>325.18717242882</ele>
        <time>2017-05-21T14:26:49Z</time>
      </trkpt>
      <trkpt lat="43.7925" lon="3.56738">
        <ele>324.25305801334</ele>
        <time>2017-05-21T14:27:09Z</time>
      </trkpt>
      <trkpt lat="43.79261" lon="3.56746">
        <ele>323.35954791404</ele>
        <time>2017-05-21T14:27:09Z</time>
      </trkpt>
      <trkpt lat="43.79266" lon="3.5675">
        <ele>323.35954791404</ele>
        <time>2017-05-21T14:27:25Z</time>
      </trkpt>
      <trkpt lat="43.79278" lon="3.56758">
        <ele>322.36994636436</ele>
        <time>2017-05-21T14:27:25Z</time>
      </trkpt>
      <trkpt lat="43.79294" lon="3.56777">
        <ele>320.99954686598</ele>
        <time>2017-05-21T14:27:38Z</time>
      </trkpt>
      <trkpt lat="43.79296" lon="3.56778">
        <ele>320.99954686598</ele>
        <time>2017-05-21T14:27:42Z</time>
      </trkpt>
      <trkpt lat="43.7932" lon="3.56845">
        <ele>317.91939486892</ele>
        <time>2017-05-21T14:28:14Z</time>
      </trkpt>
      <trkpt lat="43.79321" lon="3.56847">
        <ele>317.91939486892</ele>
        <time>2017-05-21T14:28:15Z</time>
      </trkpt>
      <trkpt lat="43.79328" lon="3.56871">
        <ele>313.93510264801</ele>
        <time>2017-05-21T14:28:46Z</time>
      </trkpt>
      <trkpt lat="43.79327" lon="3.56915">
        <ele>309.62286556225</ele>
        <time>2017-05-21T14:29:03Z</time>
      </trkpt>
      <trkpt lat="43.79327" lon="3.56926">
        <ele>309.62286556225</ele>
        <time>2017-05-21T14:29:21Z</time>
      </trkpt>
      <trkpt lat="43.79325" lon="3.56939">
        <ele>305.31585210655</ele>
        <time>2017-05-21T14:29:21Z</time>
      </trkpt>
      <trkpt lat="43.79316" lon="3.56961">
        <ele>301.2219725629</ele>
        <time>2017-05-21T14:29:39Z</time>
      </trkpt>
      <trkpt lat="43.79312" lon="3.56987">
        <ele>296.61103561275</ele>
        <time>2017-05-21T14:29:56Z</time>
      </trkpt>
      <trkpt lat="43.79311" lon="3.5699">
        <ele>296.61103561275</ele>
        <time>2017-05-21T14:30:04Z</time>
      </trkpt>
      <trkpt lat="43.7931" lon="3.57069">
        <ele>291.16827037505</ele>
        <time>2017-05-21T14:30:49Z</time>
      </trkpt>
      <trkpt lat="43.79314" lon="3.5708">
        <ele>291.16827037505</ele>
        <time>2017-05-21T14:31:11Z</time>
      </trkpt>
      <trkpt lat="43.79327" lon="3.57113">
        <ele>286.0022658709</ele>
        <time>2017-05-21T14:31:36Z</time>
      </trkpt>
      <trkpt lat="43.79332" lon="3.57137">
        <ele>281.36119673621</ele>
        <time>2017-05-21T14:31:47Z</time>
      </trkpt>
      <trkpt lat="43.79338" lon="3.57146">
        <ele>281.36119673621</ele>
        <time>2017-05-21T14:31:55Z</time>
      </trkpt>
      <trkpt lat="43.79342" lon="3.57149">
        <ele>277.15646341642</ele>
        <time>2017-05-21T14:31:56Z</time>
      </trkpt>
      <trkpt lat="43.79355" lon="3.57165">
        <ele>273.21823647129</ele>
        <time>2017-05-21T14:32:09Z</time>
      </trkpt>
      <trkpt lat="43.79371" lon="3.57181">
        <ele>269.47481694028</ele>
        <time>2017-05-21T14:32:43Z</time>
      </trkpt>
      <trkpt lat="43.79416" lon="3.57224">
        <ele>266.13296137991</ele>
        <time>2017-05-21T14:33:24Z</time>
      </trkpt>
      <trkpt lat="43.79445" lon="3.5726">
        <ele>263.09480485191</ele>
        <time>2017-05-21T14:34:12Z</time>
      </trkpt>
      <trkpt lat="43.79471" lon="3.57308">
        <ele>259.85080697076</ele>
        <time>2017-05-21T14:34:48Z</time>
      </trkpt>
      <trkpt lat="43.79473" lon="3.57308">
        <ele>259.85080697076</ele>
        <time>2017-05-21T14:34:49Z</time>
      </trkpt>
      <trkpt lat="43.79485" lon="3.5732">
        <ele>256.63548626706</ele>
        <time>2017-05-21T14:35:06Z</time>
      </trkpt>
      <trkpt lat="43.79486" lon="3.57322">
        <ele>256.63548626706</ele>
        <time>2017-05-21T14:35:06Z</time>
      </trkpt>
      <trkpt lat="43.79501" lon="3.57353">
        <ele>253.60831304795</ele>
        <time>2017-05-21T14:35:31Z</time>
      </trkpt>
      <trkpt lat="43.79583" lon="3.57431">
        <ele>251.76667626232</ele>
        <time>2017-05-21T14:37:00Z</time>
      </trkpt>
      <trkpt lat="43.79588" lon="3.57435">
        <ele>251.76667626232</ele>
        <time>2017-05-21T14:37:15Z</time>
      </trkpt>
      <trkpt lat="43.79592" lon="3.57441">
        <ele>250.21547929851</ele>
        <time>2017-05-21T14:37:15Z</time>
      </trkpt>
      <trkpt lat="43.79605" lon="3.57483">
        <ele>247.56244372649</ele>
        <time>2017-05-21T14:38:00Z</time>
      </trkpt>
      <trkpt lat="43.79625" lon="3.575">
        <ele>244.88400071817</ele>
        <time>2017-05-21T14:38:30Z</time>
      </trkpt>
      <trkpt lat="43.79627" lon="3.57505">
        <ele>244.88400071817</ele>
        <time>2017-05-21T14:38:30Z</time>
      </trkpt>
      <trkpt lat="43.79629" lon="3.5751">
        <ele>244.88400071817</ele>
        <time>2017-05-21T14:38:45Z</time>
      </trkpt>
      <trkpt lat="43.79655" lon="3.57611">
        <ele>240.72761180875</ele>
        <time>2017-05-21T14:40:07Z</time>
      </trkpt>
      <trkpt lat="43.79667" lon="3.57669">
        <ele>236.08610972726</ele>
        <time>2017-05-21T14:40:52Z</time>
      </trkpt>
      <trkpt lat="43.79665" lon="3.57672">
        <ele>236.08610972726</ele>
        <time>2017-05-21T14:40:53Z</time>
      </trkpt>
      <trkpt lat="43.79662" lon="3.57677">
        <ele>236.08610972726</ele>
        <time>2017-05-21T14:40:56Z</time>
      </trkpt>
      <trkpt lat="43.79667" lon="3.57695">
        <ele>231.82302675104</ele>
        <time>2017-05-21T14:41:08Z</time>
      </trkpt>
      <trkpt lat="43.79671" lon="3.57741">
        <ele>226.86386031481</ele>
        <time>2017-05-21T14:41:46Z</time>
      </trkpt>
      <trkpt lat="43.7967" lon="3.57745">
        <ele>226.86386031481</ele>
        <time>2017-05-21T14:41:46Z</time>
      </trkpt>
      <trkpt lat="43.7967" lon="3.57758">
        <ele>222.10274431497</ele>
        <time>2017-05-21T14:42:00Z</time>
      </trkpt>
      <trkpt lat="43.7968" lon="3.57813">
        <ele>217.45955827021</ele>
        <time>2017-05-21T14:42:36Z</time>
      </trkpt>
      <trkpt lat="43.7968" lon="3.57824">
        <ele>217.45955827021</ele>
        <time>2017-05-21T14:42:36Z</time>
      </trkpt>
      <trkpt lat="43.79688" lon="3.5784">
        <ele>212.85961052197</ele>
        <time>2017-05-21T14:42:54Z</time>
      </trkpt>
      <trkpt lat="43.79698" lon="3.57865">
        <ele>208.57930715832</ele>
        <time>2017-05-21T14:43:12Z</time>
      </trkpt>
      <trkpt lat="43.79701" lon="3.57878">
        <ele>204.68636801244</ele>
        <time>2017-05-21T14:43:17Z</time>
      </trkpt>
      <trkpt lat="43.79736" lon="3.579">
        <ele>201.37200867454</ele>
        <time>2017-05-21T14:43:54Z</time>
      </trkpt>
      <trkpt lat="43.79778" lon="3.57945">
        <ele>198.99897859942</ele>
        <time>2017-05-21T14:44:41Z</time>
      </trkpt>
      <trkpt lat="43.79799" lon="3.57968">
        <ele>197.1512269592</ele>
        <time>2017-05-21T14:44:54Z</time>
      </trkpt>
      <trkpt lat="43.79804" lon="3.57971">
        <ele>197.1512269592</ele>
        <time>2017-05-21T14:44:54Z</time>
      </trkpt>
      <trkpt lat="43.79855" lon="3.58065">
        <ele>196.72426095463</ele>
        <time>2017-05-21T14:46:17Z</time>
      </trkpt>
      <trkpt lat="43.79863" lon="3.58088">
        <ele>196.59821625638</ele>
        <time>2017-05-21T14:46:27Z</time>
      </trkpt>
      <trkpt lat="43.79885" lon="3.58106">
        <ele>196.87304974779</ele>
        <time>2017-05-21T14:46:49Z</time>
      </trkpt>
      <trkpt lat="43.79885" lon="3.58118">
        <ele>196.87304974779</ele>
        <time>2017-05-21T14:46:49Z</time>
      </trkpt>
      <trkpt lat="43.79926" lon="3.58164">
        <ele>196.57377723292</ele>
        <time>2017-05-21T14:47:32Z</time>
      </trkpt>
      <trkpt lat="43.79955" lon="3.58189">
        <ele>196.0235672517</ele>
        <time>2017-05-21T14:48:09Z</time>
      </trkpt>
      <trkpt lat="43.80001" lon="3.58217">
        <ele>195.666663892</ele>
        <time>2017-05-21T14:48:47Z</time>
      </trkpt>
      <trkpt lat="43.80002" lon="3.58219">
        <ele>195.666663892</ele>
        <time>2017-05-21T14:48:48Z</time>
      </trkpt>
      <trkpt lat="43.80024" lon="3.58238">
        <ele>195.48182398984</ele>
        <time>2017-05-21T14:49:20Z</time>
      </trkpt>
      <trkpt lat="43.80031" lon="3.58245">
        <ele>195.48182398984</ele>
        <time>2017-05-21T14:49:20Z</time>
      </trkpt>
      <trkpt lat="43.80037" lon="3.58258">
        <ele>195.37686902306</ele>
        <time>2017-05-21T14:49:37Z</time>
      </trkpt>
      <trkpt lat="43.80042" lon="3.5826">
        <ele>195.37686902306</ele>
        <time>2017-05-21T14:49:37Z</time>
      </trkpt>
      <trkpt lat="43.80046" lon="3.58271">
        <ele>195.48239608695</ele>
        <time>2017-05-21T14:49:55Z</time>
      </trkpt>
      <trkpt lat="43.80049" lon="3.58298">
        <ele>195.32804216876</ele>
        <time>2017-05-21T14:50:05Z</time>
      </trkpt>
      <trkpt lat="43.80061" lon="3.58306">
        <ele>194.99762249624</ele>
        <time>2017-05-21T14:50:21Z</time>
      </trkpt>
      <trkpt lat="43.80079" lon="3.5831">
        <ele>194.45411117676</ele>
        <time>2017-05-21T14:50:21Z</time>
      </trkpt>
      <trkpt lat="43.80092" lon="3.58336">
        <ele>194.09625692311</ele>
        <time>2017-05-21T14:50:45Z</time>
      </trkpt>
      <trkpt lat="43.80104" lon="3.58337">
        <ele>194.13460789185</ele>
        <time>2017-05-21T14:51:00Z</time>
      </trkpt>
      <trkpt lat="43.80107" lon="3.58342">
        <ele>194.13460789185</ele>
        <time>2017-05-21T14:51:00Z</time>
      </trkpt>
      <trkpt lat="43.8013" lon="3.58347">
        <ele>194.8353351351</ele>
        <time>2017-05-21T14:51:17Z</time>
      </trkpt>
      <trkpt lat="43.80141" lon="3.58355">
        <ele>195.78044499058</ele>
        <time>2017-05-21T14:51:18Z</time>
      </trkpt>
      <trkpt lat="43.80178" lon="3.58383">
        <ele>196.85594621326</ele>
        <time>2017-05-21T14:51:59Z</time>
      </trkpt>
      <trkpt lat="43.80189" lon="3.58389">
        <ele>197.85516334599</ele>
        <time>2017-05-21T14:52:09Z</time>
      </trkpt>
      <trkpt lat="43.80191" lon="3.58389">
        <ele>197.85516334599</ele>
        <time>2017-05-21T14:52:09Z</time>
      </trkpt>
      <trkpt lat="43.80206" lon="3.58397">
        <ele>198.78877271996</ele>
        <time>2017-05-21T14:52:24Z</time>
      </trkpt>
      <trkpt lat="43.80226" lon="3.58427">
        <ele>198.7015166398</ele>
        <time>2017-05-21T14:52:50Z</time>
      </trkpt>
      <trkpt lat="43.80233" lon="3.58431">
        <ele>198.7015166398</ele>
        <time>2017-05-21T14:52:50Z</time>
      </trkpt>
      <trkpt lat="43.8024" lon="3.58439">
        <ele>198.44072677392</ele>
        <time>2017-05-21T14:53:05Z</time>
      </trkpt>
      <trkpt lat="43.80282" lon="3.58458">
        <ele>198.60485623105</ele>
        <time>2017-05-21T14:53:47Z</time>
      </trkpt>
      <trkpt lat="43.80294" lon="3.58459">
        <ele>198.78188472933</ele>
        <time>2017-05-21T14:53:48Z</time>
      </trkpt>
      <trkpt lat="43.8031" lon="3.58464">
        <ele>198.92170381974</ele>
        <time>2017-05-21T14:54:05Z</time>
      </trkpt>
      <trkpt lat="43.80313" lon="3.58467">
        <ele>198.92170381974</ele>
        <time>2017-05-21T14:54:05Z</time>
      </trkpt>
      <trkpt lat="43.80344" lon="3.58499">
        <ele>199.38172776698</ele>
        <time>2017-05-21T14:54:48Z</time>
      </trkpt>
      <trkpt lat="43.80345" lon="3.585">
        <ele>199.38172776698</ele>
        <time>2017-05-21T14:54:49Z</time>
      </trkpt>
      <trkpt lat="43.80421" lon="3.58567">
        <ele>201.22741339844</ele>
        <time>2017-05-21T14:56:36Z</time>
      </trkpt>
      <trkpt lat="43.80424" lon="3.58574">
        <ele>201.22741339844</ele>
        <time>2017-05-21T14:56:38Z</time>
      </trkpt>
      <trkpt lat="43.80437" lon="3.58582">
        <ele>203.35268513625</ele>
        <time>2017-05-21T14:57:01Z</time>
      </trkpt>
      <trkpt lat="43.80435" lon="3.5858">
        <ele>203.35268513625</ele>
        <time>2017-05-21T14:57:45Z</time>
      </trkpt>
      <trkpt lat="43.8044" lon="3.58584">
        <ele>203.35268513625</ele>
        <time>2017-05-21T14:57:45Z</time>
      </trkpt>
      <trkpt lat="43.80443" lon="3.5862">
        <ele>206.95149171383</ele>
        <time>2017-05-21T14:58:11Z</time>
      </trkpt>
      <trkpt lat="43.80472" lon="3.58639">
        <ele>211.45451312453</ele>
        <time>2017-05-21T14:58:49Z</time>
      </trkpt>
      <trkpt lat="43.80481" lon="3.58578">
        <ele>218.47925762498</ele>
        <time>2017-05-21T15:00:17Z</time>
      </trkpt>
      <trkpt lat="43.80483" lon="3.58566">
        <ele>225.06461989796</ele>
        <time>2017-05-21T15:00:28Z</time>
      </trkpt>
      <trkpt lat="43.80476" lon="3.58551">
        <ele>231.26435652194</ele>
        <time>2017-05-21T15:00:36Z</time>
      </trkpt>
      <trkpt lat="43.80473" lon="3.58537">
        <ele>237.07209928488</ele>
        <time>2017-05-21T15:00:36Z</time>
      </trkpt>
      <trkpt lat="43.80441" lon="3.5842">
        <ele>243.82370230917</ele>
        <time>2017-05-21T15:02:06Z</time>
      </trkpt>
      <trkpt lat="43.80434" lon="3.58405">
        <ele>249.59865505447</ele>
        <time>2017-05-21T15:02:06Z</time>
      </trkpt>
      <trkpt lat="43.80423" lon="3.58339">
        <ele>254.1194926286</ele>
        <time>2017-05-21T15:02:35Z</time>
      </trkpt>
      <trkpt lat="43.80425" lon="3.58321">
        <ele>257.07548967451</ele>
        <time>2017-05-21T15:02:44Z</time>
      </trkpt>
      <trkpt lat="43.80424" lon="3.58276">
        <ele>259.59591394395</ele>
        <time>2017-05-21T15:03:09Z</time>
      </trkpt>
      <trkpt lat="43.80422" lon="3.58269">
        <ele>259.59591394395</ele>
        <time>2017-05-21T15:03:14Z</time>
      </trkpt>
      <trkpt lat="43.80421" lon="3.58262">
        <ele>261.80647112323</ele>
        <time>2017-05-21T15:03:19Z</time>
      </trkpt>
      <trkpt lat="43.80419" lon="3.58255">
        <ele>261.80647112323</ele>
        <time>2017-05-21T15:03:24Z</time>
      </trkpt>
      <trkpt lat="43.80418" lon="3.58249">
        <ele>263.63762706867</ele>
        <time>2017-05-21T15:03:29Z</time>
      </trkpt>
      <trkpt lat="43.80418" lon="3.58246">
        <ele>263.63762706867</ele>
        <time>2017-05-21T15:03:34Z</time>
      </trkpt>
    </trkseg>
  </trk>
</gpx>